<?xml version="1.0" encoding="UTF-8" standalone="no" ?>
<gpx xmlns="http://www.topografix.com/GPX/1/1" xmlns:xsi="http://www.w3.org/2001/XMLSchema-instance" xsi:schemaLocation="http://www.topografix.com/GPX/1/1 http://www.topografix.com/GPX/1/1/gpx.xsd" version="1.1" creator="VisuGPX - https://www.visugpx.com">
  <metadata>
    <name>Autour de Sauveterre(47)</name>
    <desc><![CDATA[Une boucle de 33kms autour de Sauveterre avec de jolies vues sur le château et des chemins variés avec en plus un bon dénivelé !]]></desc>
  </metadata>
  <trk>
    <name><![CDATA[05-MAI-16 12:26:52]]></name>
    <trkseg>
      <trkpt lat="44.58494" lon="0.96453">
        <ele>208.26</ele>
        <time>2016-05-05T07:09:27Z</time>
      </trkpt>
      <trkpt lat="44.58495" lon="0.96452">
        <ele>208.74</ele>
        <time>2016-05-05T07:09:32Z</time>
      </trkpt>
      <trkpt lat="44.58494" lon="0.96475">
        <ele>208.74</ele>
        <time>2016-05-05T07:09:44Z</time>
      </trkpt>
      <trkpt lat="44.58493" lon="0.96476">
        <ele>208.74</ele>
        <time>2016-05-05T07:09:45Z</time>
      </trkpt>
      <trkpt lat="44.58483" lon="0.96476">
        <ele>209.22</ele>
        <time>2016-05-05T07:09:52Z</time>
      </trkpt>
      <trkpt lat="44.58472" lon="0.96481">
        <ele>213.55</ele>
        <time>2016-05-05T07:10:05Z</time>
      </trkpt>
      <trkpt lat="44.58463" lon="0.96486">
        <ele>216.43</ele>
        <time>2016-05-05T07:10:23Z</time>
      </trkpt>
      <trkpt lat="44.58454" lon="0.96485">
        <ele>219.32</ele>
        <time>2016-05-05T07:10:30Z</time>
      </trkpt>
      <trkpt lat="44.5845" lon="0.96482">
        <ele>221.24</ele>
        <time>2016-05-05T07:10:41Z</time>
      </trkpt>
      <trkpt lat="44.58446" lon="0.96475">
        <ele>221.72</ele>
        <time>2016-05-05T07:10:46Z</time>
      </trkpt>
      <trkpt lat="44.58439" lon="0.96469">
        <ele>223.16</ele>
        <time>2016-05-05T07:10:52Z</time>
      </trkpt>
      <trkpt lat="44.58435" lon="0.96468">
        <ele>224.12</ele>
        <time>2016-05-05T07:10:54Z</time>
      </trkpt>
      <trkpt lat="44.58426" lon="0.96461">
        <ele>225.57</ele>
        <time>2016-05-05T07:10:59Z</time>
      </trkpt>
      <trkpt lat="44.58422" lon="0.96459">
        <ele>226.05</ele>
        <time>2016-05-05T07:11:01Z</time>
      </trkpt>
      <trkpt lat="44.5842" lon="0.96457">
        <ele>227.01</ele>
        <time>2016-05-05T07:11:03Z</time>
      </trkpt>
      <trkpt lat="44.58411" lon="0.96449">
        <ele>228.93</ele>
        <time>2016-05-05T07:11:10Z</time>
      </trkpt>
      <trkpt lat="44.58408" lon="0.96454">
        <ele>229.89</ele>
        <time>2016-05-05T07:11:14Z</time>
      </trkpt>
      <trkpt lat="44.58405" lon="0.96464">
        <ele>230.37</ele>
        <time>2016-05-05T07:11:20Z</time>
      </trkpt>
      <trkpt lat="44.58394" lon="0.96485">
        <ele>231.81</ele>
        <time>2016-05-05T07:11:34Z</time>
      </trkpt>
      <trkpt lat="44.58379" lon="0.96505">
        <ele>231.33</ele>
        <time>2016-05-05T07:11:48Z</time>
      </trkpt>
      <trkpt lat="44.58366" lon="0.96521">
        <ele>231.81</ele>
        <time>2016-05-05T07:12:04Z</time>
      </trkpt>
      <trkpt lat="44.58355" lon="0.96536">
        <ele>232.3</ele>
        <time>2016-05-05T07:12:17Z</time>
      </trkpt>
      <trkpt lat="44.58344" lon="0.9655">
        <ele>231.81</ele>
        <time>2016-05-05T07:12:24Z</time>
      </trkpt>
      <trkpt lat="44.58315" lon="0.96583">
        <ele>227.01</ele>
        <time>2016-05-05T07:12:36Z</time>
      </trkpt>
      <trkpt lat="44.58307" lon="0.96594">
        <ele>225.09</ele>
        <time>2016-05-05T07:12:40Z</time>
      </trkpt>
      <trkpt lat="44.58306" lon="0.96599">
        <ele>224.61</ele>
        <time>2016-05-05T07:12:43Z</time>
      </trkpt>
      <trkpt lat="44.58305" lon="0.96621">
        <ele>225.09</ele>
        <time>2016-05-05T07:12:50Z</time>
      </trkpt>
      <trkpt lat="44.58309" lon="0.96622">
        <ele>224.61</ele>
        <time>2016-05-05T07:12:55Z</time>
      </trkpt>
      <trkpt lat="44.58313" lon="0.96616">
        <ele>224.12</ele>
        <time>2016-05-05T07:12:59Z</time>
      </trkpt>
      <trkpt lat="44.58329" lon="0.96612">
        <ele>223.16</ele>
        <time>2016-05-05T07:13:08Z</time>
      </trkpt>
      <trkpt lat="44.58348" lon="0.96616">
        <ele>222.2</ele>
        <time>2016-05-05T07:13:16Z</time>
      </trkpt>
      <trkpt lat="44.58366" lon="0.96643">
        <ele>215.47</ele>
        <time>2016-05-05T07:13:27Z</time>
      </trkpt>
      <trkpt lat="44.58371" lon="0.96645">
        <ele>214.03</ele>
        <time>2016-05-05T07:13:30Z</time>
      </trkpt>
      <trkpt lat="44.58377" lon="0.96646">
        <ele>213.55</ele>
        <time>2016-05-05T07:13:34Z</time>
      </trkpt>
      <trkpt lat="44.584" lon="0.96642">
        <ele>210.67</ele>
        <time>2016-05-05T07:13:46Z</time>
      </trkpt>
      <trkpt lat="44.5842" lon="0.96631">
        <ele>209.22</ele>
        <time>2016-05-05T07:13:55Z</time>
      </trkpt>
      <trkpt lat="44.58441" lon="0.9662">
        <ele>208.74</ele>
        <time>2016-05-05T07:14:05Z</time>
      </trkpt>
      <trkpt lat="44.58445" lon="0.96617">
        <ele>208.26</ele>
        <time>2016-05-05T07:14:07Z</time>
      </trkpt>
      <trkpt lat="44.58454" lon="0.96614">
        <ele>207.78</ele>
        <time>2016-05-05T07:14:11Z</time>
      </trkpt>
      <trkpt lat="44.58476" lon="0.96601">
        <ele>207.3</ele>
        <time>2016-05-05T07:14:20Z</time>
      </trkpt>
      <trkpt lat="44.58485" lon="0.96597">
        <ele>207.3</ele>
        <time>2016-05-05T07:14:23Z</time>
      </trkpt>
      <trkpt lat="44.58508" lon="0.96591">
        <ele>205.86</ele>
        <time>2016-05-05T07:14:33Z</time>
      </trkpt>
      <trkpt lat="44.58516" lon="0.96582">
        <ele>202.98</ele>
        <time>2016-05-05T07:14:38Z</time>
      </trkpt>
      <trkpt lat="44.58526" lon="0.96586">
        <ele>199.13</ele>
        <time>2016-05-05T07:14:43Z</time>
      </trkpt>
      <trkpt lat="44.58544" lon="0.9658">
        <ele>191.44</ele>
        <time>2016-05-05T07:14:53Z</time>
      </trkpt>
      <trkpt lat="44.58546" lon="0.96587">
        <ele>186.63</ele>
        <time>2016-05-05T07:15:03Z</time>
      </trkpt>
      <trkpt lat="44.58545" lon="0.96595">
        <ele>183.75</ele>
        <time>2016-05-05T07:15:12Z</time>
      </trkpt>
      <trkpt lat="44.58545" lon="0.96602">
        <ele>177.02</ele>
        <time>2016-05-05T07:15:25Z</time>
      </trkpt>
      <trkpt lat="44.58547" lon="0.96602">
        <ele>175.1</ele>
        <time>2016-05-05T07:15:46Z</time>
      </trkpt>
      <trkpt lat="44.58545" lon="0.96609">
        <ele>176.06</ele>
        <time>2016-05-05T07:16:02Z</time>
      </trkpt>
      <trkpt lat="44.58547" lon="0.9661">
        <ele>175.58</ele>
        <time>2016-05-05T07:16:05Z</time>
      </trkpt>
      <trkpt lat="44.58548" lon="0.9661">
        <ele>175.58</ele>
        <time>2016-05-05T07:16:07Z</time>
      </trkpt>
      <trkpt lat="44.58553" lon="0.96613">
        <ele>173.17</ele>
        <time>2016-05-05T07:16:20Z</time>
      </trkpt>
      <trkpt lat="44.58552" lon="0.96614">
        <ele>173.17</ele>
        <time>2016-05-05T07:16:23Z</time>
      </trkpt>
      <trkpt lat="44.5855" lon="0.96617">
        <ele>173.17</ele>
        <time>2016-05-05T07:16:25Z</time>
      </trkpt>
      <trkpt lat="44.58534" lon="0.96633">
        <ele>175.1</ele>
        <time>2016-05-05T07:16:34Z</time>
      </trkpt>
      <trkpt lat="44.58511" lon="0.96656">
        <ele>174.62</ele>
        <time>2016-05-05T07:16:45Z</time>
      </trkpt>
      <trkpt lat="44.58498" lon="0.96686">
        <ele>174.62</ele>
        <time>2016-05-05T07:16:51Z</time>
      </trkpt>
      <trkpt lat="44.58491" lon="0.96698">
        <ele>174.62</ele>
        <time>2016-05-05T07:16:53Z</time>
      </trkpt>
      <trkpt lat="44.58476" lon="0.96728">
        <ele>175.1</ele>
        <time>2016-05-05T07:16:58Z</time>
      </trkpt>
      <trkpt lat="44.58458" lon="0.9676">
        <ele>175.58</ele>
        <time>2016-05-05T07:17:03Z</time>
      </trkpt>
      <trkpt lat="44.5842" lon="0.96803">
        <ele>171.25</ele>
        <time>2016-05-05T07:17:09Z</time>
      </trkpt>
      <trkpt lat="44.58381" lon="0.96842">
        <ele>161.64</ele>
        <time>2016-05-05T07:17:15Z</time>
      </trkpt>
      <trkpt lat="44.58359" lon="0.96856">
        <ele>154.43</ele>
        <time>2016-05-05T07:17:18Z</time>
      </trkpt>
      <trkpt lat="44.58316" lon="0.96895">
        <ele>137.61</ele>
        <time>2016-05-05T07:17:26Z</time>
      </trkpt>
      <trkpt lat="44.58317" lon="0.96921">
        <ele>127.99</ele>
        <time>2016-05-05T07:17:34Z</time>
      </trkpt>
      <trkpt lat="44.58319" lon="0.96922">
        <ele>127.03</ele>
        <time>2016-05-05T07:17:35Z</time>
      </trkpt>
      <trkpt lat="44.58323" lon="0.96925">
        <ele>125.11</ele>
        <time>2016-05-05T07:17:37Z</time>
      </trkpt>
      <trkpt lat="44.58328" lon="0.96933">
        <ele>123.19</ele>
        <time>2016-05-05T07:17:40Z</time>
      </trkpt>
      <trkpt lat="44.58339" lon="0.9693">
        <ele>118.86</ele>
        <time>2016-05-05T07:17:48Z</time>
      </trkpt>
      <trkpt lat="44.58342" lon="0.96928">
        <ele>117.42</ele>
        <time>2016-05-05T07:17:51Z</time>
      </trkpt>
      <trkpt lat="44.58348" lon="0.96926">
        <ele>115.98</ele>
        <time>2016-05-05T07:17:55Z</time>
      </trkpt>
      <trkpt lat="44.58384" lon="0.96906">
        <ele>107.81</ele>
        <time>2016-05-05T07:18:08Z</time>
      </trkpt>
      <trkpt lat="44.58429" lon="0.96887">
        <ele>112.61</ele>
        <time>2016-05-05T07:18:21Z</time>
      </trkpt>
      <trkpt lat="44.58463" lon="0.9687">
        <ele>114.53</ele>
        <time>2016-05-05T07:18:32Z</time>
      </trkpt>
      <trkpt lat="44.58507" lon="0.96847">
        <ele>117.9</ele>
        <time>2016-05-05T07:18:45Z</time>
      </trkpt>
      <trkpt lat="44.58544" lon="0.9683">
        <ele>121.26</ele>
        <time>2016-05-05T07:18:56Z</time>
      </trkpt>
      <trkpt lat="44.58599" lon="0.96807">
        <ele>120.78</ele>
        <time>2016-05-05T07:19:10Z</time>
      </trkpt>
      <trkpt lat="44.58626" lon="0.96779">
        <ele>119.82</ele>
        <time>2016-05-05T07:19:20Z</time>
      </trkpt>
      <trkpt lat="44.5864" lon="0.96756">
        <ele>120.78</ele>
        <time>2016-05-05T07:19:28Z</time>
      </trkpt>
      <trkpt lat="44.5867" lon="0.96719">
        <ele>122.22</ele>
        <time>2016-05-05T07:19:40Z</time>
      </trkpt>
      <trkpt lat="44.58705" lon="0.96691">
        <ele>125.11</ele>
        <time>2016-05-05T07:19:52Z</time>
      </trkpt>
      <trkpt lat="44.58724" lon="0.96657">
        <ele>126.07</ele>
        <time>2016-05-05T07:20:01Z</time>
      </trkpt>
      <trkpt lat="44.58729" lon="0.96645">
        <ele>125.59</ele>
        <time>2016-05-05T07:20:04Z</time>
      </trkpt>
      <trkpt lat="44.58761" lon="0.96619">
        <ele>124.63</ele>
        <time>2016-05-05T07:20:16Z</time>
      </trkpt>
      <trkpt lat="44.58796" lon="0.96616">
        <ele>122.22</ele>
        <time>2016-05-05T07:20:27Z</time>
      </trkpt>
      <trkpt lat="44.58834" lon="0.96616">
        <ele>122.71</ele>
        <time>2016-05-05T07:20:39Z</time>
      </trkpt>
      <trkpt lat="44.58858" lon="0.96616">
        <ele>121.74</ele>
        <time>2016-05-05T07:20:46Z</time>
      </trkpt>
      <trkpt lat="44.58902" lon="0.96641">
        <ele>120.78</ele>
        <time>2016-05-05T07:20:59Z</time>
      </trkpt>
      <trkpt lat="44.58952" lon="0.9665">
        <ele>120.78</ele>
        <time>2016-05-05T07:21:13Z</time>
      </trkpt>
      <trkpt lat="44.58996" lon="0.96669">
        <ele>119.82</ele>
        <time>2016-05-05T07:21:25Z</time>
      </trkpt>
      <trkpt lat="44.59047" lon="0.96679">
        <ele>120.78</ele>
        <time>2016-05-05T07:21:39Z</time>
      </trkpt>
      <trkpt lat="44.5907" lon="0.96673">
        <ele>121.74</ele>
        <time>2016-05-05T07:21:45Z</time>
      </trkpt>
      <trkpt lat="44.59125" lon="0.96631">
        <ele>119.34</ele>
        <time>2016-05-05T07:21:59Z</time>
      </trkpt>
      <trkpt lat="44.59159" lon="0.96581">
        <ele>120.78</ele>
        <time>2016-05-05T07:22:11Z</time>
      </trkpt>
      <trkpt lat="44.59179" lon="0.96513">
        <ele>121.74</ele>
        <time>2016-05-05T07:22:26Z</time>
      </trkpt>
      <trkpt lat="44.59189" lon="0.96472">
        <ele>123.19</ele>
        <time>2016-05-05T07:22:35Z</time>
      </trkpt>
      <trkpt lat="44.59221" lon="0.96433">
        <ele>122.71</ele>
        <time>2016-05-05T07:22:45Z</time>
      </trkpt>
      <trkpt lat="44.59234" lon="0.96434">
        <ele>122.71</ele>
        <time>2016-05-05T07:22:47Z</time>
      </trkpt>
      <trkpt lat="44.59251" lon="0.9644">
        <ele>122.71</ele>
        <time>2016-05-05T07:22:51Z</time>
      </trkpt>
      <trkpt lat="44.59266" lon="0.96452">
        <ele>122.71</ele>
        <time>2016-05-05T07:22:57Z</time>
      </trkpt>
      <trkpt lat="44.5928" lon="0.96437">
        <ele>122.71</ele>
        <time>2016-05-05T07:23:04Z</time>
      </trkpt>
      <trkpt lat="44.59318" lon="0.96379">
        <ele>123.67</ele>
        <time>2016-05-05T07:23:21Z</time>
      </trkpt>
      <trkpt lat="44.59351" lon="0.96332">
        <ele>124.63</ele>
        <time>2016-05-05T07:23:35Z</time>
      </trkpt>
      <trkpt lat="44.59369" lon="0.96303">
        <ele>124.63</ele>
        <time>2016-05-05T07:23:43Z</time>
      </trkpt>
      <trkpt lat="44.59376" lon="0.96316">
        <ele>126.55</ele>
        <time>2016-05-05T07:23:50Z</time>
      </trkpt>
      <trkpt lat="44.59358" lon="0.96359">
        <ele>131.36</ele>
        <time>2016-05-05T07:24:05Z</time>
      </trkpt>
      <trkpt lat="44.59349" lon="0.96387">
        <ele>133.76</ele>
        <time>2016-05-05T07:24:16Z</time>
      </trkpt>
      <trkpt lat="44.59357" lon="0.96389">
        <ele>134.72</ele>
        <time>2016-05-05T07:24:21Z</time>
      </trkpt>
      <trkpt lat="44.5937" lon="0.96384">
        <ele>136.64</ele>
        <time>2016-05-05T07:24:29Z</time>
      </trkpt>
      <trkpt lat="44.59392" lon="0.96388">
        <ele>140.49</ele>
        <time>2016-05-05T07:24:41Z</time>
      </trkpt>
      <trkpt lat="44.59398" lon="0.96377">
        <ele>140.01</ele>
        <time>2016-05-05T07:24:47Z</time>
      </trkpt>
      <trkpt lat="44.59401" lon="0.96377">
        <ele>140.01</ele>
        <time>2016-05-05T07:24:49Z</time>
      </trkpt>
      <trkpt lat="44.59409" lon="0.96395">
        <ele>141.93</ele>
        <time>2016-05-05T07:24:59Z</time>
      </trkpt>
      <trkpt lat="44.59411" lon="0.96396">
        <ele>142.41</ele>
        <time>2016-05-05T07:25:00Z</time>
      </trkpt>
      <trkpt lat="44.59423" lon="0.96397">
        <ele>142.89</ele>
        <time>2016-05-05T07:25:05Z</time>
      </trkpt>
      <trkpt lat="44.59452" lon="0.96397">
        <ele>140.97</ele>
        <time>2016-05-05T07:25:12Z</time>
      </trkpt>
      <trkpt lat="44.595" lon="0.96403">
        <ele>136.64</ele>
        <time>2016-05-05T07:25:19Z</time>
      </trkpt>
      <trkpt lat="44.59574" lon="0.96438">
        <ele>130.88</ele>
        <time>2016-05-05T07:25:28Z</time>
      </trkpt>
      <trkpt lat="44.59641" lon="0.96486">
        <ele>125.59</ele>
        <time>2016-05-05T07:25:37Z</time>
      </trkpt>
      <trkpt lat="44.59674" lon="0.96513">
        <ele>124.15</ele>
        <time>2016-05-05T07:25:42Z</time>
      </trkpt>
      <trkpt lat="44.59683" lon="0.96555">
        <ele>124.15</ele>
        <time>2016-05-05T07:25:50Z</time>
      </trkpt>
      <trkpt lat="44.59687" lon="0.96586">
        <ele>124.63</ele>
        <time>2016-05-05T07:26:02Z</time>
      </trkpt>
      <trkpt lat="44.59701" lon="0.96607">
        <ele>126.07</ele>
        <time>2016-05-05T07:26:12Z</time>
      </trkpt>
      <trkpt lat="44.5973" lon="0.96643">
        <ele>129.92</ele>
        <time>2016-05-05T07:26:24Z</time>
      </trkpt>
      <trkpt lat="44.59755" lon="0.96698">
        <ele>131.36</ele>
        <time>2016-05-05T07:26:38Z</time>
      </trkpt>
      <trkpt lat="44.59784" lon="0.96763">
        <ele>133.76</ele>
        <time>2016-05-05T07:26:53Z</time>
      </trkpt>
      <trkpt lat="44.59817" lon="0.96821">
        <ele>132.8</ele>
        <time>2016-05-05T07:27:07Z</time>
      </trkpt>
      <trkpt lat="44.59851" lon="0.96872">
        <ele>133.28</ele>
        <time>2016-05-05T07:27:22Z</time>
      </trkpt>
      <trkpt lat="44.59887" lon="0.96893">
        <ele>132.32</ele>
        <time>2016-05-05T07:27:34Z</time>
      </trkpt>
      <trkpt lat="44.59956" lon="0.96907">
        <ele>132.32</ele>
        <time>2016-05-05T07:27:51Z</time>
      </trkpt>
      <trkpt lat="44.5996" lon="0.96908">
        <ele>132.32</ele>
        <time>2016-05-05T07:27:52Z</time>
      </trkpt>
      <trkpt lat="44.60011" lon="0.96941">
        <ele>136.16</ele>
        <time>2016-05-05T07:28:08Z</time>
      </trkpt>
      <trkpt lat="44.60012" lon="0.96993">
        <ele>142.89</ele>
        <time>2016-05-05T07:28:19Z</time>
      </trkpt>
      <trkpt lat="44.60012" lon="0.97002">
        <ele>142.41</ele>
        <time>2016-05-05T07:28:21Z</time>
      </trkpt>
      <trkpt lat="44.59988" lon="0.97024">
        <ele>139.53</ele>
        <time>2016-05-05T07:28:31Z</time>
      </trkpt>
      <trkpt lat="44.59948" lon="0.97064">
        <ele>137.61</ele>
        <time>2016-05-05T07:28:47Z</time>
      </trkpt>
      <trkpt lat="44.59945" lon="0.97068">
        <ele>138.09</ele>
        <time>2016-05-05T07:28:49Z</time>
      </trkpt>
      <trkpt lat="44.59943" lon="0.97082">
        <ele>137.61</ele>
        <time>2016-05-05T07:28:53Z</time>
      </trkpt>
      <trkpt lat="44.59962" lon="0.97149">
        <ele>140.01</ele>
        <time>2016-05-05T07:29:09Z</time>
      </trkpt>
      <trkpt lat="44.59994" lon="0.97168">
        <ele>142.89</ele>
        <time>2016-05-05T07:29:19Z</time>
      </trkpt>
      <trkpt lat="44.60022" lon="0.9719">
        <ele>144.34</ele>
        <time>2016-05-05T07:29:29Z</time>
      </trkpt>
      <trkpt lat="44.60061" lon="0.97171">
        <ele>144.82</ele>
        <time>2016-05-05T07:29:43Z</time>
      </trkpt>
      <trkpt lat="44.60072" lon="0.97165">
        <ele>144.34</ele>
        <time>2016-05-05T07:29:48Z</time>
      </trkpt>
      <trkpt lat="44.60089" lon="0.97183">
        <ele>145.3</ele>
        <time>2016-05-05T07:29:57Z</time>
      </trkpt>
      <trkpt lat="44.60112" lon="0.97223">
        <ele>146.74</ele>
        <time>2016-05-05T07:30:12Z</time>
      </trkpt>
      <trkpt lat="44.60134" lon="0.97252">
        <ele>147.22</ele>
        <time>2016-05-05T07:30:25Z</time>
      </trkpt>
      <trkpt lat="44.60161" lon="0.97279">
        <ele>148.66</ele>
        <time>2016-05-05T07:30:39Z</time>
      </trkpt>
      <trkpt lat="44.60191" lon="0.97305">
        <ele>152.51</ele>
        <time>2016-05-05T07:30:53Z</time>
      </trkpt>
      <trkpt lat="44.60208" lon="0.97329">
        <ele>155.87</ele>
        <time>2016-05-05T07:31:05Z</time>
      </trkpt>
      <trkpt lat="44.60209" lon="0.97341">
        <ele>157.31</ele>
        <time>2016-05-05T07:31:10Z</time>
      </trkpt>
      <trkpt lat="44.6021" lon="0.97388">
        <ele>159.24</ele>
        <time>2016-05-05T07:31:25Z</time>
      </trkpt>
      <trkpt lat="44.6021" lon="0.97397">
        <ele>159.72</ele>
        <time>2016-05-05T07:31:28Z</time>
      </trkpt>
      <trkpt lat="44.60207" lon="0.97439">
        <ele>159.24</ele>
        <time>2016-05-05T07:31:42Z</time>
      </trkpt>
      <trkpt lat="44.60201" lon="0.97472">
        <ele>161.64</ele>
        <time>2016-05-05T07:31:54Z</time>
      </trkpt>
      <trkpt lat="44.60189" lon="0.97516">
        <ele>157.79</ele>
        <time>2016-05-05T07:32:08Z</time>
      </trkpt>
      <trkpt lat="44.60182" lon="0.97562">
        <ele>155.87</ele>
        <time>2016-05-05T07:32:22Z</time>
      </trkpt>
      <trkpt lat="44.6018" lon="0.97579">
        <ele>156.35</ele>
        <time>2016-05-05T07:32:32Z</time>
      </trkpt>
      <trkpt lat="44.60182" lon="0.97619">
        <ele>162.6</ele>
        <time>2016-05-05T07:32:45Z</time>
      </trkpt>
      <trkpt lat="44.60187" lon="0.97657">
        <ele>165</ele>
        <time>2016-05-05T07:32:56Z</time>
      </trkpt>
      <trkpt lat="44.6019" lon="0.97693">
        <ele>165.96</ele>
        <time>2016-05-05T07:33:07Z</time>
      </trkpt>
      <trkpt lat="44.60191" lon="0.977">
        <ele>165.96</ele>
        <time>2016-05-05T07:33:09Z</time>
      </trkpt>
      <trkpt lat="44.60196" lon="0.97722">
        <ele>166.45</ele>
        <time>2016-05-05T07:33:15Z</time>
      </trkpt>
      <trkpt lat="44.60199" lon="0.97762">
        <ele>165.48</ele>
        <time>2016-05-05T07:33:26Z</time>
      </trkpt>
      <trkpt lat="44.60191" lon="0.97774">
        <ele>166.45</ele>
        <time>2016-05-05T07:33:32Z</time>
      </trkpt>
      <trkpt lat="44.60164" lon="0.97798">
        <ele>163.08</ele>
        <time>2016-05-05T07:33:41Z</time>
      </trkpt>
      <trkpt lat="44.60145" lon="0.97845">
        <ele>162.12</ele>
        <time>2016-05-05T07:33:55Z</time>
      </trkpt>
      <trkpt lat="44.60127" lon="0.97875">
        <ele>165</ele>
        <time>2016-05-05T07:34:07Z</time>
      </trkpt>
      <trkpt lat="44.60124" lon="0.97892">
        <ele>170.29</ele>
        <time>2016-05-05T07:34:16Z</time>
      </trkpt>
      <trkpt lat="44.60124" lon="0.97897">
        <ele>171.73</ele>
        <time>2016-05-05T07:34:18Z</time>
      </trkpt>
      <trkpt lat="44.60122" lon="0.97905">
        <ele>174.14</ele>
        <time>2016-05-05T07:34:22Z</time>
      </trkpt>
      <trkpt lat="44.60114" lon="0.97917">
        <ele>173.66</ele>
        <time>2016-05-05T07:34:28Z</time>
      </trkpt>
      <trkpt lat="44.6011" lon="0.97923">
        <ele>174.14</ele>
        <time>2016-05-05T07:34:32Z</time>
      </trkpt>
      <trkpt lat="44.60097" lon="0.97937">
        <ele>171.25</ele>
        <time>2016-05-05T07:34:38Z</time>
      </trkpt>
      <trkpt lat="44.60092" lon="0.97959">
        <ele>167.89</ele>
        <time>2016-05-05T07:34:51Z</time>
      </trkpt>
      <trkpt lat="44.60092" lon="0.97961">
        <ele>166.93</ele>
        <time>2016-05-05T07:34:53Z</time>
      </trkpt>
      <trkpt lat="44.60103" lon="0.97969">
        <ele>165</ele>
        <time>2016-05-05T07:35:00Z</time>
      </trkpt>
      <trkpt lat="44.6013" lon="0.97974">
        <ele>164.04</ele>
        <time>2016-05-05T07:35:06Z</time>
      </trkpt>
      <trkpt lat="44.60146" lon="0.97973">
        <ele>163.56</ele>
        <time>2016-05-05T07:35:09Z</time>
      </trkpt>
      <trkpt lat="44.60161" lon="0.97975">
        <ele>163.56</ele>
        <time>2016-05-05T07:35:15Z</time>
      </trkpt>
      <trkpt lat="44.60163" lon="0.97987">
        <ele>165</ele>
        <time>2016-05-05T07:35:20Z</time>
      </trkpt>
      <trkpt lat="44.60164" lon="0.98021">
        <ele>168.85</ele>
        <time>2016-05-05T07:35:33Z</time>
      </trkpt>
      <trkpt lat="44.60164" lon="0.98037">
        <ele>170.29</ele>
        <time>2016-05-05T07:35:39Z</time>
      </trkpt>
      <trkpt lat="44.60156" lon="0.98078">
        <ele>168.85</ele>
        <time>2016-05-05T07:35:54Z</time>
      </trkpt>
      <trkpt lat="44.60154" lon="0.98086">
        <ele>168.37</ele>
        <time>2016-05-05T07:35:58Z</time>
      </trkpt>
      <trkpt lat="44.60153" lon="0.98091">
        <ele>167.89</ele>
        <time>2016-05-05T07:36:00Z</time>
      </trkpt>
      <trkpt lat="44.60154" lon="0.98109">
        <ele>168.85</ele>
        <time>2016-05-05T07:36:06Z</time>
      </trkpt>
      <trkpt lat="44.60157" lon="0.9812">
        <ele>172.21</ele>
        <time>2016-05-05T07:36:10Z</time>
      </trkpt>
      <trkpt lat="44.60171" lon="0.98154">
        <ele>180.38</ele>
        <time>2016-05-05T07:36:23Z</time>
      </trkpt>
      <trkpt lat="44.60177" lon="0.9818">
        <ele>184.23</ele>
        <time>2016-05-05T07:36:33Z</time>
      </trkpt>
      <trkpt lat="44.60174" lon="0.98196">
        <ele>182.79</ele>
        <time>2016-05-05T07:36:39Z</time>
      </trkpt>
      <trkpt lat="44.60156" lon="0.98225">
        <ele>180.38</ele>
        <time>2016-05-05T07:36:53Z</time>
      </trkpt>
      <trkpt lat="44.60133" lon="0.98245">
        <ele>186.15</ele>
        <time>2016-05-05T07:37:07Z</time>
      </trkpt>
      <trkpt lat="44.60131" lon="0.98246">
        <ele>186.15</ele>
        <time>2016-05-05T07:37:08Z</time>
      </trkpt>
      <trkpt lat="44.60107" lon="0.98266">
        <ele>184.71</ele>
        <time>2016-05-05T07:37:22Z</time>
      </trkpt>
      <trkpt lat="44.60089" lon="0.98304">
        <ele>183.27</ele>
        <time>2016-05-05T07:37:37Z</time>
      </trkpt>
      <trkpt lat="44.60083" lon="0.98338">
        <ele>179.42</ele>
        <time>2016-05-05T07:37:51Z</time>
      </trkpt>
      <trkpt lat="44.60079" lon="0.98379">
        <ele>179.9</ele>
        <time>2016-05-05T07:38:06Z</time>
      </trkpt>
      <trkpt lat="44.60075" lon="0.98421">
        <ele>179.42</ele>
        <time>2016-05-05T07:38:22Z</time>
      </trkpt>
      <trkpt lat="44.6007" lon="0.9846">
        <ele>176.06</ele>
        <time>2016-05-05T07:38:37Z</time>
      </trkpt>
      <trkpt lat="44.6005" lon="0.98497">
        <ele>179.9</ele>
        <time>2016-05-05T07:38:52Z</time>
      </trkpt>
      <trkpt lat="44.60042" lon="0.98537">
        <ele>186.63</ele>
        <time>2016-05-05T07:39:06Z</time>
      </trkpt>
      <trkpt lat="44.60039" lon="0.98547">
        <ele>189.04</ele>
        <time>2016-05-05T07:39:09Z</time>
      </trkpt>
      <trkpt lat="44.60027" lon="0.98571">
        <ele>192.4</ele>
        <time>2016-05-05T07:39:20Z</time>
      </trkpt>
      <trkpt lat="44.60022" lon="0.98586">
        <ele>196.73</ele>
        <time>2016-05-05T07:39:27Z</time>
      </trkpt>
      <trkpt lat="44.60015" lon="0.98611">
        <ele>202.98</ele>
        <time>2016-05-05T07:39:37Z</time>
      </trkpt>
      <trkpt lat="44.60013" lon="0.98621">
        <ele>203.46</ele>
        <time>2016-05-05T07:39:41Z</time>
      </trkpt>
      <trkpt lat="44.60013" lon="0.98626">
        <ele>203.94</ele>
        <time>2016-05-05T07:39:43Z</time>
      </trkpt>
      <trkpt lat="44.60014" lon="0.98629">
        <ele>204.42</ele>
        <time>2016-05-05T07:39:45Z</time>
      </trkpt>
      <trkpt lat="44.6001" lon="0.98642">
        <ele>204.42</ele>
        <time>2016-05-05T07:39:50Z</time>
      </trkpt>
      <trkpt lat="44.59998" lon="0.98684">
        <ele>208.74</ele>
        <time>2016-05-05T07:40:04Z</time>
      </trkpt>
      <trkpt lat="44.6" lon="0.9872">
        <ele>212.11</ele>
        <time>2016-05-05T07:40:17Z</time>
      </trkpt>
      <trkpt lat="44.60003" lon="0.98736">
        <ele>214.51</ele>
        <time>2016-05-05T07:40:23Z</time>
      </trkpt>
      <trkpt lat="44.60015" lon="0.9878">
        <ele>224.61</ele>
        <time>2016-05-05T07:40:38Z</time>
      </trkpt>
      <trkpt lat="44.6001" lon="0.98819">
        <ele>226.05</ele>
        <time>2016-05-05T07:40:54Z</time>
      </trkpt>
      <trkpt lat="44.60009" lon="0.98829">
        <ele>226.05</ele>
        <time>2016-05-05T07:41:00Z</time>
      </trkpt>
      <trkpt lat="44.60008" lon="0.98837">
        <ele>225.57</ele>
        <time>2016-05-05T07:41:03Z</time>
      </trkpt>
      <trkpt lat="44.60007" lon="0.98852">
        <ele>225.09</ele>
        <time>2016-05-05T07:41:09Z</time>
      </trkpt>
      <trkpt lat="44.60005" lon="0.98868">
        <ele>225.57</ele>
        <time>2016-05-05T07:41:15Z</time>
      </trkpt>
      <trkpt lat="44.60004" lon="0.98903">
        <ele>228.93</ele>
        <time>2016-05-05T07:41:29Z</time>
      </trkpt>
      <trkpt lat="44.59995" lon="0.98948">
        <ele>227.49</ele>
        <time>2016-05-05T07:41:45Z</time>
      </trkpt>
      <trkpt lat="44.59984" lon="0.98975">
        <ele>227.01</ele>
        <time>2016-05-05T07:41:59Z</time>
      </trkpt>
      <trkpt lat="44.59973" lon="0.99006">
        <ele>228.93</ele>
        <time>2016-05-05T07:42:13Z</time>
      </trkpt>
      <trkpt lat="44.59982" lon="0.99032">
        <ele>230.85</ele>
        <time>2016-05-05T07:42:27Z</time>
      </trkpt>
      <trkpt lat="44.59987" lon="0.99033">
        <ele>230.85</ele>
        <time>2016-05-05T07:42:39Z</time>
      </trkpt>
      <trkpt lat="44.59975" lon="0.99038">
        <ele>230.37</ele>
        <time>2016-05-05T07:42:49Z</time>
      </trkpt>
      <trkpt lat="44.59973" lon="0.99041">
        <ele>230.37</ele>
        <time>2016-05-05T07:42:51Z</time>
      </trkpt>
      <trkpt lat="44.59973" lon="0.99044">
        <ele>230.37</ele>
        <time>2016-05-05T07:42:53Z</time>
      </trkpt>
      <trkpt lat="44.59972" lon="0.99047">
        <ele>230.85</ele>
        <time>2016-05-05T07:42:55Z</time>
      </trkpt>
      <trkpt lat="44.59963" lon="0.9907">
        <ele>233.26</ele>
        <time>2016-05-05T07:43:06Z</time>
      </trkpt>
      <trkpt lat="44.59962" lon="0.99077">
        <ele>234.22</ele>
        <time>2016-05-05T07:43:09Z</time>
      </trkpt>
      <trkpt lat="44.59956" lon="0.99087">
        <ele>234.7</ele>
        <time>2016-05-05T07:43:21Z</time>
      </trkpt>
      <trkpt lat="44.59956" lon="0.99094">
        <ele>233.74</ele>
        <time>2016-05-05T07:43:25Z</time>
      </trkpt>
      <trkpt lat="44.59954" lon="0.99104">
        <ele>232.78</ele>
        <time>2016-05-05T07:43:29Z</time>
      </trkpt>
      <trkpt lat="44.59953" lon="0.99118">
        <ele>230.85</ele>
        <time>2016-05-05T07:43:35Z</time>
      </trkpt>
      <trkpt lat="44.59951" lon="0.99124">
        <ele>230.37</ele>
        <time>2016-05-05T07:43:38Z</time>
      </trkpt>
      <trkpt lat="44.59946" lon="0.9914">
        <ele>229.41</ele>
        <time>2016-05-05T07:43:48Z</time>
      </trkpt>
      <trkpt lat="44.59945" lon="0.99148">
        <ele>229.89</ele>
        <time>2016-05-05T07:43:53Z</time>
      </trkpt>
      <trkpt lat="44.5994" lon="0.99155">
        <ele>233.26</ele>
        <time>2016-05-05T07:44:10Z</time>
      </trkpt>
      <trkpt lat="44.59937" lon="0.99159">
        <ele>233.74</ele>
        <time>2016-05-05T07:44:23Z</time>
      </trkpt>
      <trkpt lat="44.59937" lon="0.99165">
        <ele>233.26</ele>
        <time>2016-05-05T07:44:36Z</time>
      </trkpt>
      <trkpt lat="44.59937" lon="0.99171">
        <ele>232.3</ele>
        <time>2016-05-05T07:44:45Z</time>
      </trkpt>
      <trkpt lat="44.59926" lon="0.99185">
        <ele>222.68</ele>
        <time>2016-05-05T07:44:56Z</time>
      </trkpt>
      <trkpt lat="44.59916" lon="0.99209">
        <ele>213.07</ele>
        <time>2016-05-05T07:45:07Z</time>
      </trkpt>
      <trkpt lat="44.59907" lon="0.99228">
        <ele>205.38</ele>
        <time>2016-05-05T07:45:17Z</time>
      </trkpt>
      <trkpt lat="44.59901" lon="0.99239">
        <ele>203.46</ele>
        <time>2016-05-05T07:45:30Z</time>
      </trkpt>
      <trkpt lat="44.59898" lon="0.99246">
        <ele>202.01</ele>
        <time>2016-05-05T07:45:43Z</time>
      </trkpt>
      <trkpt lat="44.59895" lon="0.99254">
        <ele>202.49</ele>
        <time>2016-05-05T07:45:54Z</time>
      </trkpt>
      <trkpt lat="44.59892" lon="0.99255">
        <ele>205.86</ele>
        <time>2016-05-05T07:46:06Z</time>
      </trkpt>
      <trkpt lat="44.59889" lon="0.99259">
        <ele>206.82</ele>
        <time>2016-05-05T07:46:11Z</time>
      </trkpt>
      <trkpt lat="44.59884" lon="0.99265">
        <ele>208.74</ele>
        <time>2016-05-05T07:46:17Z</time>
      </trkpt>
      <trkpt lat="44.59875" lon="0.99288">
        <ele>205.38</ele>
        <time>2016-05-05T07:46:28Z</time>
      </trkpt>
      <trkpt lat="44.59867" lon="0.99302">
        <ele>202.98</ele>
        <time>2016-05-05T07:46:51Z</time>
      </trkpt>
      <trkpt lat="44.59865" lon="0.9931">
        <ele>200.57</ele>
        <time>2016-05-05T07:47:04Z</time>
      </trkpt>
      <trkpt lat="44.59865" lon="0.99316">
        <ele>201.05</ele>
        <time>2016-05-05T07:47:14Z</time>
      </trkpt>
      <trkpt lat="44.5986" lon="0.99332">
        <ele>201.05</ele>
        <time>2016-05-05T07:47:21Z</time>
      </trkpt>
      <trkpt lat="44.59854" lon="0.99347">
        <ele>201.53</ele>
        <time>2016-05-05T07:47:35Z</time>
      </trkpt>
      <trkpt lat="44.59854" lon="0.99349">
        <ele>201.53</ele>
        <time>2016-05-05T07:47:36Z</time>
      </trkpt>
      <trkpt lat="44.5985" lon="0.99354">
        <ele>200.57</ele>
        <time>2016-05-05T07:47:40Z</time>
      </trkpt>
      <trkpt lat="44.59837" lon="0.99357">
        <ele>200.57</ele>
        <time>2016-05-05T07:47:50Z</time>
      </trkpt>
      <trkpt lat="44.59813" lon="0.99356">
        <ele>199.61</ele>
        <time>2016-05-05T07:47:57Z</time>
      </trkpt>
      <trkpt lat="44.59759" lon="0.99331">
        <ele>195.77</ele>
        <time>2016-05-05T07:48:09Z</time>
      </trkpt>
      <trkpt lat="44.59733" lon="0.99341">
        <ele>193.84</ele>
        <time>2016-05-05T07:48:15Z</time>
      </trkpt>
      <trkpt lat="44.59717" lon="0.99383">
        <ele>188.08</ele>
        <time>2016-05-05T07:48:21Z</time>
      </trkpt>
      <trkpt lat="44.59696" lon="0.99391">
        <ele>183.27</ele>
        <time>2016-05-05T07:48:27Z</time>
      </trkpt>
      <trkpt lat="44.59668" lon="0.99392">
        <ele>184.23</ele>
        <time>2016-05-05T07:48:32Z</time>
      </trkpt>
      <trkpt lat="44.59658" lon="0.99393">
        <ele>184.71</ele>
        <time>2016-05-05T07:48:34Z</time>
      </trkpt>
      <trkpt lat="44.59636" lon="0.99386">
        <ele>186.15</ele>
        <time>2016-05-05T07:48:39Z</time>
      </trkpt>
      <trkpt lat="44.59615" lon="0.99371">
        <ele>185.67</ele>
        <time>2016-05-05T07:48:44Z</time>
      </trkpt>
      <trkpt lat="44.59599" lon="0.9936">
        <ele>185.67</ele>
        <time>2016-05-05T07:48:48Z</time>
      </trkpt>
      <trkpt lat="44.5958" lon="0.99352">
        <ele>187.11</ele>
        <time>2016-05-05T07:48:52Z</time>
      </trkpt>
      <trkpt lat="44.59542" lon="0.99339">
        <ele>190</ele>
        <time>2016-05-05T07:49:01Z</time>
      </trkpt>
      <trkpt lat="44.59506" lon="0.99323">
        <ele>190.96</ele>
        <time>2016-05-05T07:49:11Z</time>
      </trkpt>
      <trkpt lat="44.59469" lon="0.99322">
        <ele>190</ele>
        <time>2016-05-05T07:49:23Z</time>
      </trkpt>
      <trkpt lat="44.59433" lon="0.99337">
        <ele>183.75</ele>
        <time>2016-05-05T07:49:33Z</time>
      </trkpt>
      <trkpt lat="44.59407" lon="0.9937">
        <ele>173.17</ele>
        <time>2016-05-05T07:49:43Z</time>
      </trkpt>
      <trkpt lat="44.59395" lon="0.99398">
        <ele>166.45</ele>
        <time>2016-05-05T07:49:49Z</time>
      </trkpt>
      <trkpt lat="44.59383" lon="0.99422">
        <ele>160.68</ele>
        <time>2016-05-05T07:49:53Z</time>
      </trkpt>
      <trkpt lat="44.59376" lon="0.99434">
        <ele>157.79</ele>
        <time>2016-05-05T07:49:55Z</time>
      </trkpt>
      <trkpt lat="44.59358" lon="0.99453">
        <ele>152.51</ele>
        <time>2016-05-05T07:49:59Z</time>
      </trkpt>
      <trkpt lat="44.59338" lon="0.99469">
        <ele>147.22</ele>
        <time>2016-05-05T07:50:03Z</time>
      </trkpt>
      <trkpt lat="44.59315" lon="0.99484">
        <ele>142.41</ele>
        <time>2016-05-05T07:50:07Z</time>
      </trkpt>
      <trkpt lat="44.59298" lon="0.99498">
        <ele>139.05</ele>
        <time>2016-05-05T07:50:10Z</time>
      </trkpt>
      <trkpt lat="44.59278" lon="0.99522">
        <ele>133.76</ele>
        <time>2016-05-05T07:50:14Z</time>
      </trkpt>
      <trkpt lat="44.59267" lon="0.99542">
        <ele>130.88</ele>
        <time>2016-05-05T07:50:17Z</time>
      </trkpt>
      <trkpt lat="44.59249" lon="0.99563">
        <ele>127.03</ele>
        <time>2016-05-05T07:50:21Z</time>
      </trkpt>
      <trkpt lat="44.5923" lon="0.99579">
        <ele>124.63</ele>
        <time>2016-05-05T07:50:25Z</time>
      </trkpt>
      <trkpt lat="44.59191" lon="0.99607">
        <ele>127.03</ele>
        <time>2016-05-05T07:50:35Z</time>
      </trkpt>
      <trkpt lat="44.59161" lon="0.99623">
        <ele>129.43</ele>
        <time>2016-05-05T07:50:45Z</time>
      </trkpt>
      <trkpt lat="44.59107" lon="0.9965">
        <ele>138.09</ele>
        <time>2016-05-05T07:51:01Z</time>
      </trkpt>
      <trkpt lat="44.59062" lon="0.99683">
        <ele>134.24</ele>
        <time>2016-05-05T07:51:14Z</time>
      </trkpt>
      <trkpt lat="44.59019" lon="0.99708">
        <ele>139.05</ele>
        <time>2016-05-05T07:51:28Z</time>
      </trkpt>
      <trkpt lat="44.5898" lon="0.99709">
        <ele>144.34</ele>
        <time>2016-05-05T07:51:41Z</time>
      </trkpt>
      <trkpt lat="44.58943" lon="0.99717">
        <ele>151.54</ele>
        <time>2016-05-05T07:51:54Z</time>
      </trkpt>
      <trkpt lat="44.58912" lon="0.99743">
        <ele>152.99</ele>
        <time>2016-05-05T07:52:08Z</time>
      </trkpt>
      <trkpt lat="44.58887" lon="0.99776">
        <ele>153.47</ele>
        <time>2016-05-05T07:52:21Z</time>
      </trkpt>
      <trkpt lat="44.58858" lon="0.99806">
        <ele>152.99</ele>
        <time>2016-05-05T07:52:34Z</time>
      </trkpt>
      <trkpt lat="44.58824" lon="0.99856">
        <ele>157.31</ele>
        <time>2016-05-05T07:52:48Z</time>
      </trkpt>
      <trkpt lat="44.58804" lon="0.99906">
        <ele>157.31</ele>
        <time>2016-05-05T07:53:00Z</time>
      </trkpt>
      <trkpt lat="44.58787" lon="0.99962">
        <ele>155.39</ele>
        <time>2016-05-05T07:53:12Z</time>
      </trkpt>
      <trkpt lat="44.58762" lon="1.00047">
        <ele>149.62</ele>
        <time>2016-05-05T07:53:26Z</time>
      </trkpt>
      <trkpt lat="44.58736" lon="1.00111">
        <ele>143.85</ele>
        <time>2016-05-05T07:53:36Z</time>
      </trkpt>
      <trkpt lat="44.5872" lon="1.00151">
        <ele>139.05</ele>
        <time>2016-05-05T07:53:42Z</time>
      </trkpt>
      <trkpt lat="44.58696" lon="1.00204">
        <ele>134.24</ele>
        <time>2016-05-05T07:53:49Z</time>
      </trkpt>
      <trkpt lat="44.58688" lon="1.00218">
        <ele>133.28</ele>
        <time>2016-05-05T07:53:51Z</time>
      </trkpt>
      <trkpt lat="44.58672" lon="1.00233">
        <ele>132.8</ele>
        <time>2016-05-05T07:53:54Z</time>
      </trkpt>
      <trkpt lat="44.58658" lon="1.00252">
        <ele>131.36</ele>
        <time>2016-05-05T07:53:57Z</time>
      </trkpt>
      <trkpt lat="44.58651" lon="1.00268">
        <ele>129.92</ele>
        <time>2016-05-05T07:53:59Z</time>
      </trkpt>
      <trkpt lat="44.58639" lon="1.00348">
        <ele>122.71</ele>
        <time>2016-05-05T07:54:08Z</time>
      </trkpt>
      <trkpt lat="44.58637" lon="1.00361">
        <ele>120.78</ele>
        <time>2016-05-05T07:54:10Z</time>
      </trkpt>
      <trkpt lat="44.58596" lon="1.00381">
        <ele>118.38</ele>
        <time>2016-05-05T07:54:18Z</time>
      </trkpt>
      <trkpt lat="44.58545" lon="1.004">
        <ele>115.5</ele>
        <time>2016-05-05T07:54:27Z</time>
      </trkpt>
      <trkpt lat="44.58541" lon="1.00421">
        <ele>115.5</ele>
        <time>2016-05-05T07:54:32Z</time>
      </trkpt>
      <trkpt lat="44.58572" lon="1.00509">
        <ele>119.34</ele>
        <time>2016-05-05T07:54:51Z</time>
      </trkpt>
      <trkpt lat="44.58581" lon="1.00536">
        <ele>120.78</ele>
        <time>2016-05-05T07:54:57Z</time>
      </trkpt>
      <trkpt lat="44.58571" lon="1.00552">
        <ele>121.74</ele>
        <time>2016-05-05T07:55:04Z</time>
      </trkpt>
      <trkpt lat="44.58539" lon="1.00573">
        <ele>122.71</ele>
        <time>2016-05-05T07:55:14Z</time>
      </trkpt>
      <trkpt lat="44.58536" lon="1.00604">
        <ele>121.74</ele>
        <time>2016-05-05T07:55:20Z</time>
      </trkpt>
      <trkpt lat="44.58581" lon="1.00701">
        <ele>119.34</ele>
        <time>2016-05-05T07:55:34Z</time>
      </trkpt>
      <trkpt lat="44.58629" lon="1.00798">
        <ele>119.82</ele>
        <time>2016-05-05T07:55:51Z</time>
      </trkpt>
      <trkpt lat="44.58698" lon="1.00893">
        <ele>117.9</ele>
        <time>2016-05-05T07:56:09Z</time>
      </trkpt>
      <trkpt lat="44.58776" lon="1.00987">
        <ele>118.38</ele>
        <time>2016-05-05T07:56:27Z</time>
      </trkpt>
      <trkpt lat="44.58843" lon="1.01063">
        <ele>118.86</ele>
        <time>2016-05-05T07:56:44Z</time>
      </trkpt>
      <trkpt lat="44.58897" lon="1.01132">
        <ele>118.38</ele>
        <time>2016-05-05T07:56:59Z</time>
      </trkpt>
      <trkpt lat="44.58913" lon="1.01165">
        <ele>119.34</ele>
        <time>2016-05-05T07:57:05Z</time>
      </trkpt>
      <trkpt lat="44.5899" lon="1.01255">
        <ele>120.3</ele>
        <time>2016-05-05T07:57:26Z</time>
      </trkpt>
      <trkpt lat="44.59049" lon="1.01312">
        <ele>121.26</ele>
        <time>2016-05-05T07:57:42Z</time>
      </trkpt>
      <trkpt lat="44.59043" lon="1.0133">
        <ele>121.26</ele>
        <time>2016-05-05T07:57:47Z</time>
      </trkpt>
      <trkpt lat="44.58999" lon="1.01399">
        <ele>119.82</ele>
        <time>2016-05-05T07:58:03Z</time>
      </trkpt>
      <trkpt lat="44.5896" lon="1.01464">
        <ele>117.9</ele>
        <time>2016-05-05T07:58:18Z</time>
      </trkpt>
      <trkpt lat="44.58922" lon="1.01515">
        <ele>120.3</ele>
        <time>2016-05-05T07:58:33Z</time>
      </trkpt>
      <trkpt lat="44.58918" lon="1.01522">
        <ele>120.3</ele>
        <time>2016-05-05T07:58:35Z</time>
      </trkpt>
      <trkpt lat="44.589" lon="1.01516">
        <ele>121.74</ele>
        <time>2016-05-05T07:58:43Z</time>
      </trkpt>
      <trkpt lat="44.58872" lon="1.01494">
        <ele>125.59</ele>
        <time>2016-05-05T07:58:55Z</time>
      </trkpt>
      <trkpt lat="44.58853" lon="1.01498">
        <ele>126.55</ele>
        <time>2016-05-05T07:59:05Z</time>
      </trkpt>
      <trkpt lat="44.5883" lon="1.01511">
        <ele>130.88</ele>
        <time>2016-05-05T07:59:20Z</time>
      </trkpt>
      <trkpt lat="44.588" lon="1.01519">
        <ele>134.72</ele>
        <time>2016-05-05T07:59:37Z</time>
      </trkpt>
      <trkpt lat="44.58783" lon="1.01527">
        <ele>136.64</ele>
        <time>2016-05-05T07:59:47Z</time>
      </trkpt>
      <trkpt lat="44.58791" lon="1.01566">
        <ele>137.13</ele>
        <time>2016-05-05T08:00:03Z</time>
      </trkpt>
      <trkpt lat="44.58795" lon="1.0159">
        <ele>138.09</ele>
        <time>2016-05-05T08:00:13Z</time>
      </trkpt>
      <trkpt lat="44.58793" lon="1.01605">
        <ele>138.09</ele>
        <time>2016-05-05T08:00:19Z</time>
      </trkpt>
      <trkpt lat="44.58764" lon="1.01621">
        <ele>140.01</ele>
        <time>2016-05-05T08:00:36Z</time>
      </trkpt>
      <trkpt lat="44.58736" lon="1.01634">
        <ele>143.85</ele>
        <time>2016-05-05T08:00:52Z</time>
      </trkpt>
      <trkpt lat="44.58707" lon="1.01657">
        <ele>147.7</ele>
        <time>2016-05-05T08:01:12Z</time>
      </trkpt>
      <trkpt lat="44.58695" lon="1.01679">
        <ele>147.22</ele>
        <time>2016-05-05T08:01:26Z</time>
      </trkpt>
      <trkpt lat="44.58684" lon="1.01697">
        <ele>147.7</ele>
        <time>2016-05-05T08:01:38Z</time>
      </trkpt>
      <trkpt lat="44.58672" lon="1.01718">
        <ele>148.66</ele>
        <time>2016-05-05T08:01:51Z</time>
      </trkpt>
      <trkpt lat="44.58664" lon="1.01721">
        <ele>150.58</ele>
        <time>2016-05-05T08:01:58Z</time>
      </trkpt>
      <trkpt lat="44.58656" lon="1.01722">
        <ele>153.47</ele>
        <time>2016-05-05T08:02:07Z</time>
      </trkpt>
      <trkpt lat="44.58648" lon="1.01725">
        <ele>155.87</ele>
        <time>2016-05-05T08:02:13Z</time>
      </trkpt>
      <trkpt lat="44.58638" lon="1.01728">
        <ele>157.79</ele>
        <time>2016-05-05T08:02:21Z</time>
      </trkpt>
      <trkpt lat="44.58628" lon="1.01735">
        <ele>159.24</ele>
        <time>2016-05-05T08:02:29Z</time>
      </trkpt>
      <trkpt lat="44.58625" lon="1.01741">
        <ele>159.24</ele>
        <time>2016-05-05T08:02:34Z</time>
      </trkpt>
      <trkpt lat="44.58622" lon="1.01761">
        <ele>160.68</ele>
        <time>2016-05-05T08:02:45Z</time>
      </trkpt>
      <trkpt lat="44.58619" lon="1.0177">
        <ele>160.68</ele>
        <time>2016-05-05T08:02:50Z</time>
      </trkpt>
      <trkpt lat="44.58616" lon="1.01779">
        <ele>161.64</ele>
        <time>2016-05-05T08:02:54Z</time>
      </trkpt>
      <trkpt lat="44.58613" lon="1.01785">
        <ele>161.64</ele>
        <time>2016-05-05T08:02:57Z</time>
      </trkpt>
      <trkpt lat="44.58612" lon="1.01797">
        <ele>163.08</ele>
        <time>2016-05-05T08:03:02Z</time>
      </trkpt>
      <trkpt lat="44.58611" lon="1.01802">
        <ele>163.56</ele>
        <time>2016-05-05T08:03:04Z</time>
      </trkpt>
      <trkpt lat="44.5861" lon="1.0181">
        <ele>164.52</ele>
        <time>2016-05-05T08:03:07Z</time>
      </trkpt>
      <trkpt lat="44.5861" lon="1.01815">
        <ele>165</ele>
        <time>2016-05-05T08:03:10Z</time>
      </trkpt>
      <trkpt lat="44.58603" lon="1.01832">
        <ele>169.33</ele>
        <time>2016-05-05T08:03:21Z</time>
      </trkpt>
      <trkpt lat="44.58589" lon="1.01836">
        <ele>172.21</ele>
        <time>2016-05-05T08:03:32Z</time>
      </trkpt>
      <trkpt lat="44.58571" lon="1.01841">
        <ele>176.06</ele>
        <time>2016-05-05T08:03:46Z</time>
      </trkpt>
      <trkpt lat="44.58554" lon="1.01847">
        <ele>178.94</ele>
        <time>2016-05-05T08:03:59Z</time>
      </trkpt>
      <trkpt lat="44.58537" lon="1.01847">
        <ele>180.38</ele>
        <time>2016-05-05T08:04:12Z</time>
      </trkpt>
      <trkpt lat="44.58534" lon="1.01846">
        <ele>180.38</ele>
        <time>2016-05-05T08:04:15Z</time>
      </trkpt>
      <trkpt lat="44.58522" lon="1.01854">
        <ele>180.87</ele>
        <time>2016-05-05T08:04:24Z</time>
      </trkpt>
      <trkpt lat="44.58518" lon="1.01857">
        <ele>181.83</ele>
        <time>2016-05-05T08:04:37Z</time>
      </trkpt>
      <trkpt lat="44.58516" lon="1.01861">
        <ele>181.83</ele>
        <time>2016-05-05T08:04:54Z</time>
      </trkpt>
      <trkpt lat="44.58509" lon="1.01876">
        <ele>182.79</ele>
        <time>2016-05-05T08:05:05Z</time>
      </trkpt>
      <trkpt lat="44.58505" lon="1.01884">
        <ele>183.27</ele>
        <time>2016-05-05T08:05:10Z</time>
      </trkpt>
      <trkpt lat="44.585" lon="1.01892">
        <ele>181.83</ele>
        <time>2016-05-05T08:05:16Z</time>
      </trkpt>
      <trkpt lat="44.58483" lon="1.01926">
        <ele>176.54</ele>
        <time>2016-05-05T08:05:33Z</time>
      </trkpt>
      <trkpt lat="44.58479" lon="1.01931">
        <ele>176.06</ele>
        <time>2016-05-05T08:05:36Z</time>
      </trkpt>
      <trkpt lat="44.5847" lon="1.01956">
        <ele>173.66</ele>
        <time>2016-05-05T08:05:47Z</time>
      </trkpt>
      <trkpt lat="44.58454" lon="1.02005">
        <ele>173.66</ele>
        <time>2016-05-05T08:06:00Z</time>
      </trkpt>
      <trkpt lat="44.5845" lon="1.02017">
        <ele>173.66</ele>
        <time>2016-05-05T08:06:02Z</time>
      </trkpt>
      <trkpt lat="44.58446" lon="1.02036">
        <ele>173.66</ele>
        <time>2016-05-05T08:06:05Z</time>
      </trkpt>
      <trkpt lat="44.58442" lon="1.02114">
        <ele>170.29</ele>
        <time>2016-05-05T08:06:17Z</time>
      </trkpt>
      <trkpt lat="44.58442" lon="1.02142">
        <ele>169.81</ele>
        <time>2016-05-05T08:06:22Z</time>
      </trkpt>
      <trkpt lat="44.58443" lon="1.02221">
        <ele>172.69</ele>
        <time>2016-05-05T08:06:37Z</time>
      </trkpt>
      <trkpt lat="44.58473" lon="1.02281">
        <ele>177.02</ele>
        <time>2016-05-05T08:06:52Z</time>
      </trkpt>
      <trkpt lat="44.58498" lon="1.02327">
        <ele>175.1</ele>
        <time>2016-05-05T08:07:04Z</time>
      </trkpt>
      <trkpt lat="44.58499" lon="1.02369">
        <ele>174.14</ele>
        <time>2016-05-05T08:07:14Z</time>
      </trkpt>
      <trkpt lat="44.58477" lon="1.02437">
        <ele>168.85</ele>
        <time>2016-05-05T08:07:26Z</time>
      </trkpt>
      <trkpt lat="44.58468" lon="1.02458">
        <ele>167.41</ele>
        <time>2016-05-05T08:07:29Z</time>
      </trkpt>
      <trkpt lat="44.58452" lon="1.02482">
        <ele>166.45</ele>
        <time>2016-05-05T08:07:33Z</time>
      </trkpt>
      <trkpt lat="44.58428" lon="1.02554">
        <ele>163.08</ele>
        <time>2016-05-05T08:07:42Z</time>
      </trkpt>
      <trkpt lat="44.58428" lon="1.02588">
        <ele>161.64</ele>
        <time>2016-05-05T08:07:46Z</time>
      </trkpt>
      <trkpt lat="44.58436" lon="1.02633">
        <ele>163.56</ele>
        <time>2016-05-05T08:07:52Z</time>
      </trkpt>
      <trkpt lat="44.58444" lon="1.02661">
        <ele>165.48</ele>
        <time>2016-05-05T08:07:58Z</time>
      </trkpt>
      <trkpt lat="44.58467" lon="1.02683">
        <ele>170.29</ele>
        <time>2016-05-05T08:08:10Z</time>
      </trkpt>
      <trkpt lat="44.58468" lon="1.02691">
        <ele>170.77</ele>
        <time>2016-05-05T08:08:13Z</time>
      </trkpt>
      <trkpt lat="44.5846" lon="1.02732">
        <ele>165.48</ele>
        <time>2016-05-05T08:08:29Z</time>
      </trkpt>
      <trkpt lat="44.58455" lon="1.02769">
        <ele>167.41</ele>
        <time>2016-05-05T08:08:43Z</time>
      </trkpt>
      <trkpt lat="44.58457" lon="1.02801">
        <ele>170.29</ele>
        <time>2016-05-05T08:08:56Z</time>
      </trkpt>
      <trkpt lat="44.58461" lon="1.02834">
        <ele>174.62</ele>
        <time>2016-05-05T08:09:10Z</time>
      </trkpt>
      <trkpt lat="44.58459" lon="1.02837">
        <ele>175.1</ele>
        <time>2016-05-05T08:09:26Z</time>
      </trkpt>
      <trkpt lat="44.58453" lon="1.0285">
        <ele>176.06</ele>
        <time>2016-05-05T08:09:33Z</time>
      </trkpt>
      <trkpt lat="44.58443" lon="1.02878">
        <ele>173.66</ele>
        <time>2016-05-05T08:09:41Z</time>
      </trkpt>
      <trkpt lat="44.58432" lon="1.02894">
        <ele>169.33</ele>
        <time>2016-05-05T08:09:50Z</time>
      </trkpt>
      <trkpt lat="44.58412" lon="1.02919">
        <ele>166.93</ele>
        <time>2016-05-05T08:10:03Z</time>
      </trkpt>
      <trkpt lat="44.58384" lon="1.02936">
        <ele>165</ele>
        <time>2016-05-05T08:10:13Z</time>
      </trkpt>
      <trkpt lat="44.5838" lon="1.02936">
        <ele>165.48</ele>
        <time>2016-05-05T08:10:14Z</time>
      </trkpt>
      <trkpt lat="44.58358" lon="1.02942">
        <ele>165.48</ele>
        <time>2016-05-05T08:10:18Z</time>
      </trkpt>
      <trkpt lat="44.58349" lon="1.02971">
        <ele>165.48</ele>
        <time>2016-05-05T08:10:25Z</time>
      </trkpt>
      <trkpt lat="44.58366" lon="1.03006">
        <ele>162.6</ele>
        <time>2016-05-05T08:10:36Z</time>
      </trkpt>
      <trkpt lat="44.58371" lon="1.03016">
        <ele>161.16</ele>
        <time>2016-05-05T08:10:39Z</time>
      </trkpt>
      <trkpt lat="44.584" lon="1.03036">
        <ele>159.24</ele>
        <time>2016-05-05T08:10:50Z</time>
      </trkpt>
      <trkpt lat="44.58409" lon="1.0304">
        <ele>159.24</ele>
        <time>2016-05-05T08:10:52Z</time>
      </trkpt>
      <trkpt lat="44.58434" lon="1.03058">
        <ele>158.27</ele>
        <time>2016-05-05T08:11:01Z</time>
      </trkpt>
      <trkpt lat="44.58445" lon="1.03083">
        <ele>158.27</ele>
        <time>2016-05-05T08:11:10Z</time>
      </trkpt>
      <trkpt lat="44.58447" lon="1.03092">
        <ele>158.75</ele>
        <time>2016-05-05T08:11:14Z</time>
      </trkpt>
      <trkpt lat="44.58449" lon="1.0311">
        <ele>158.75</ele>
        <time>2016-05-05T08:11:22Z</time>
      </trkpt>
      <trkpt lat="44.58431" lon="1.0312">
        <ele>158.27</ele>
        <time>2016-05-05T08:11:33Z</time>
      </trkpt>
      <trkpt lat="44.58421" lon="1.03125">
        <ele>159.24</ele>
        <time>2016-05-05T08:11:40Z</time>
      </trkpt>
      <trkpt lat="44.58413" lon="1.03128">
        <ele>159.72</ele>
        <time>2016-05-05T08:11:45Z</time>
      </trkpt>
      <trkpt lat="44.5839" lon="1.03138">
        <ele>158.27</ele>
        <time>2016-05-05T08:11:59Z</time>
      </trkpt>
      <trkpt lat="44.58372" lon="1.03151">
        <ele>159.72</ele>
        <time>2016-05-05T08:12:11Z</time>
      </trkpt>
      <trkpt lat="44.58352" lon="1.03166">
        <ele>165</ele>
        <time>2016-05-05T08:12:25Z</time>
      </trkpt>
      <trkpt lat="44.58335" lon="1.03183">
        <ele>169.81</ele>
        <time>2016-05-05T08:12:38Z</time>
      </trkpt>
      <trkpt lat="44.58314" lon="1.03202">
        <ele>169.81</ele>
        <time>2016-05-05T08:12:52Z</time>
      </trkpt>
      <trkpt lat="44.58285" lon="1.03219">
        <ele>171.25</ele>
        <time>2016-05-05T08:13:07Z</time>
      </trkpt>
      <trkpt lat="44.5825" lon="1.03233">
        <ele>169.81</ele>
        <time>2016-05-05T08:13:23Z</time>
      </trkpt>
      <trkpt lat="44.58219" lon="1.03243">
        <ele>167.89</ele>
        <time>2016-05-05T08:13:38Z</time>
      </trkpt>
      <trkpt lat="44.58193" lon="1.03249">
        <ele>167.89</ele>
        <time>2016-05-05T08:13:51Z</time>
      </trkpt>
      <trkpt lat="44.58163" lon="1.03256">
        <ele>168.37</ele>
        <time>2016-05-05T08:14:06Z</time>
      </trkpt>
      <trkpt lat="44.58138" lon="1.0327">
        <ele>167.89</ele>
        <time>2016-05-05T08:14:20Z</time>
      </trkpt>
      <trkpt lat="44.58109" lon="1.03286">
        <ele>167.89</ele>
        <time>2016-05-05T08:14:35Z</time>
      </trkpt>
      <trkpt lat="44.58076" lon="1.03305">
        <ele>167.89</ele>
        <time>2016-05-05T08:14:51Z</time>
      </trkpt>
      <trkpt lat="44.58048" lon="1.03327">
        <ele>165.96</ele>
        <time>2016-05-05T08:15:05Z</time>
      </trkpt>
      <trkpt lat="44.5802" lon="1.03356">
        <ele>162.6</ele>
        <time>2016-05-05T08:15:21Z</time>
      </trkpt>
      <trkpt lat="44.57996" lon="1.0338">
        <ele>161.64</ele>
        <time>2016-05-05T08:15:33Z</time>
      </trkpt>
      <trkpt lat="44.57963" lon="1.03376">
        <ele>168.37</ele>
        <time>2016-05-05T08:15:48Z</time>
      </trkpt>
      <trkpt lat="44.57962" lon="1.03375">
        <ele>168.85</ele>
        <time>2016-05-05T08:15:49Z</time>
      </trkpt>
      <trkpt lat="44.57956" lon="1.03395">
        <ele>169.33</ele>
        <time>2016-05-05T08:16:00Z</time>
      </trkpt>
      <trkpt lat="44.57946" lon="1.03434">
        <ele>167.89</ele>
        <time>2016-05-05T08:16:16Z</time>
      </trkpt>
      <trkpt lat="44.5794" lon="1.03458">
        <ele>165.96</ele>
        <time>2016-05-05T08:16:27Z</time>
      </trkpt>
      <trkpt lat="44.57933" lon="1.0348">
        <ele>157.79</ele>
        <time>2016-05-05T08:16:41Z</time>
      </trkpt>
      <trkpt lat="44.5793" lon="1.03491">
        <ele>163.08</ele>
        <time>2016-05-05T08:16:57Z</time>
      </trkpt>
      <trkpt lat="44.5793" lon="1.03495">
        <ele>163.56</ele>
        <time>2016-05-05T08:16:59Z</time>
      </trkpt>
      <trkpt lat="44.57924" lon="1.03509">
        <ele>162.12</ele>
        <time>2016-05-05T08:17:08Z</time>
      </trkpt>
      <trkpt lat="44.57912" lon="1.03545">
        <ele>163.08</ele>
        <time>2016-05-05T08:17:25Z</time>
      </trkpt>
      <trkpt lat="44.57898" lon="1.03579">
        <ele>162.6</ele>
        <time>2016-05-05T08:17:40Z</time>
      </trkpt>
      <trkpt lat="44.57887" lon="1.03596">
        <ele>162.12</ele>
        <time>2016-05-05T08:17:48Z</time>
      </trkpt>
      <trkpt lat="44.57882" lon="1.03607">
        <ele>162.12</ele>
        <time>2016-05-05T08:17:53Z</time>
      </trkpt>
      <trkpt lat="44.57856" lon="1.03649">
        <ele>164.52</ele>
        <time>2016-05-05T08:18:12Z</time>
      </trkpt>
      <trkpt lat="44.57833" lon="1.03671">
        <ele>166.93</ele>
        <time>2016-05-05T08:18:26Z</time>
      </trkpt>
      <trkpt lat="44.5781" lon="1.03688">
        <ele>162.6</ele>
        <time>2016-05-05T08:18:39Z</time>
      </trkpt>
      <trkpt lat="44.57782" lon="1.03716">
        <ele>159.72</ele>
        <time>2016-05-05T08:18:55Z</time>
      </trkpt>
      <trkpt lat="44.57779" lon="1.0372">
        <ele>159.72</ele>
        <time>2016-05-05T08:18:57Z</time>
      </trkpt>
      <trkpt lat="44.57769" lon="1.03746">
        <ele>157.79</ele>
        <time>2016-05-05T08:19:11Z</time>
      </trkpt>
      <trkpt lat="44.57759" lon="1.03781">
        <ele>157.79</ele>
        <time>2016-05-05T08:19:25Z</time>
      </trkpt>
      <trkpt lat="44.57749" lon="1.03832">
        <ele>159.72</ele>
        <time>2016-05-05T08:19:41Z</time>
      </trkpt>
      <trkpt lat="44.57746" lon="1.03847">
        <ele>161.16</ele>
        <time>2016-05-05T08:19:46Z</time>
      </trkpt>
      <trkpt lat="44.57745" lon="1.03865">
        <ele>169.81</ele>
        <time>2016-05-05T08:19:51Z</time>
      </trkpt>
      <trkpt lat="44.5775" lon="1.03903">
        <ele>172.69</ele>
        <time>2016-05-05T08:20:05Z</time>
      </trkpt>
      <trkpt lat="44.57751" lon="1.03909">
        <ele>171.73</ele>
        <time>2016-05-05T08:20:07Z</time>
      </trkpt>
      <trkpt lat="44.57751" lon="1.03921">
        <ele>170.29</ele>
        <time>2016-05-05T08:20:13Z</time>
      </trkpt>
      <trkpt lat="44.57753" lon="1.03944">
        <ele>168.37</ele>
        <time>2016-05-05T08:20:21Z</time>
      </trkpt>
      <trkpt lat="44.57746" lon="1.03984">
        <ele>169.33</ele>
        <time>2016-05-05T08:20:34Z</time>
      </trkpt>
      <trkpt lat="44.57732" lon="1.04028">
        <ele>169.81</ele>
        <time>2016-05-05T08:20:48Z</time>
      </trkpt>
      <trkpt lat="44.57725" lon="1.04047">
        <ele>170.77</ele>
        <time>2016-05-05T08:20:55Z</time>
      </trkpt>
      <trkpt lat="44.57719" lon="1.0406">
        <ele>170.29</ele>
        <time>2016-05-05T08:21:00Z</time>
      </trkpt>
      <trkpt lat="44.57703" lon="1.04092">
        <ele>167.41</ele>
        <time>2016-05-05T08:21:15Z</time>
      </trkpt>
      <trkpt lat="44.57687" lon="1.0412">
        <ele>163.08</ele>
        <time>2016-05-05T08:21:30Z</time>
      </trkpt>
      <trkpt lat="44.57668" lon="1.04146">
        <ele>158.27</ele>
        <time>2016-05-05T08:21:44Z</time>
      </trkpt>
      <trkpt lat="44.57657" lon="1.04169">
        <ele>161.16</ele>
        <time>2016-05-05T08:21:54Z</time>
      </trkpt>
      <trkpt lat="44.5765" lon="1.04186">
        <ele>164.04</ele>
        <time>2016-05-05T08:22:02Z</time>
      </trkpt>
      <trkpt lat="44.57645" lon="1.04223">
        <ele>167.89</ele>
        <time>2016-05-05T08:22:14Z</time>
      </trkpt>
      <trkpt lat="44.57646" lon="1.04237">
        <ele>169.81</ele>
        <time>2016-05-05T08:22:17Z</time>
      </trkpt>
      <trkpt lat="44.5765" lon="1.04269">
        <ele>178.46</ele>
        <time>2016-05-05T08:22:24Z</time>
      </trkpt>
      <trkpt lat="44.57654" lon="1.04282">
        <ele>181.83</ele>
        <time>2016-05-05T08:22:30Z</time>
      </trkpt>
      <trkpt lat="44.57656" lon="1.04285">
        <ele>181.83</ele>
        <time>2016-05-05T08:22:32Z</time>
      </trkpt>
      <trkpt lat="44.57658" lon="1.04308">
        <ele>182.79</ele>
        <time>2016-05-05T08:22:45Z</time>
      </trkpt>
      <trkpt lat="44.57655" lon="1.04324">
        <ele>180.38</ele>
        <time>2016-05-05T08:23:01Z</time>
      </trkpt>
      <trkpt lat="44.57654" lon="1.04328">
        <ele>179.9</ele>
        <time>2016-05-05T08:23:03Z</time>
      </trkpt>
      <trkpt lat="44.57644" lon="1.04349">
        <ele>172.21</ele>
        <time>2016-05-05T08:23:14Z</time>
      </trkpt>
      <trkpt lat="44.57642" lon="1.04355">
        <ele>170.77</ele>
        <time>2016-05-05T08:23:16Z</time>
      </trkpt>
      <trkpt lat="44.57626" lon="1.04379">
        <ele>158.27</ele>
        <time>2016-05-05T08:23:28Z</time>
      </trkpt>
      <trkpt lat="44.57624" lon="1.04383">
        <ele>157.79</ele>
        <time>2016-05-05T08:23:30Z</time>
      </trkpt>
      <trkpt lat="44.57605" lon="1.04404">
        <ele>159.72</ele>
        <time>2016-05-05T08:23:42Z</time>
      </trkpt>
      <trkpt lat="44.57587" lon="1.0442">
        <ele>159.24</ele>
        <time>2016-05-05T08:23:54Z</time>
      </trkpt>
      <trkpt lat="44.5757" lon="1.04443">
        <ele>155.39</ele>
        <time>2016-05-05T08:24:08Z</time>
      </trkpt>
      <trkpt lat="44.57557" lon="1.04479">
        <ele>164.04</ele>
        <time>2016-05-05T08:24:20Z</time>
      </trkpt>
      <trkpt lat="44.57551" lon="1.04504">
        <ele>172.21</ele>
        <time>2016-05-05T08:24:28Z</time>
      </trkpt>
      <trkpt lat="44.57543" lon="1.04506">
        <ele>179.42</ele>
        <time>2016-05-05T08:24:33Z</time>
      </trkpt>
      <trkpt lat="44.5754" lon="1.04505">
        <ele>180.87</ele>
        <time>2016-05-05T08:24:35Z</time>
      </trkpt>
      <trkpt lat="44.57522" lon="1.04504">
        <ele>186.63</ele>
        <time>2016-05-05T08:24:46Z</time>
      </trkpt>
      <trkpt lat="44.57496" lon="1.045">
        <ele>190.96</ele>
        <time>2016-05-05T08:24:59Z</time>
      </trkpt>
      <trkpt lat="44.57467" lon="1.04492">
        <ele>195.77</ele>
        <time>2016-05-05T08:25:13Z</time>
      </trkpt>
      <trkpt lat="44.57446" lon="1.04496">
        <ele>198.17</ele>
        <time>2016-05-05T08:25:23Z</time>
      </trkpt>
      <trkpt lat="44.5744" lon="1.04498">
        <ele>199.13</ele>
        <time>2016-05-05T08:25:27Z</time>
      </trkpt>
      <trkpt lat="44.5741" lon="1.04506">
        <ele>205.38</ele>
        <time>2016-05-05T08:25:40Z</time>
      </trkpt>
      <trkpt lat="44.57406" lon="1.04507">
        <ele>205.86</ele>
        <time>2016-05-05T08:25:42Z</time>
      </trkpt>
      <trkpt lat="44.57385" lon="1.04518">
        <ele>206.82</ele>
        <time>2016-05-05T08:25:55Z</time>
      </trkpt>
      <trkpt lat="44.57378" lon="1.04519">
        <ele>208.26</ele>
        <time>2016-05-05T08:25:58Z</time>
      </trkpt>
      <trkpt lat="44.57346" lon="1.04533">
        <ele>209.22</ele>
        <time>2016-05-05T08:26:13Z</time>
      </trkpt>
      <trkpt lat="44.57332" lon="1.04566">
        <ele>209.7</ele>
        <time>2016-05-05T08:26:26Z</time>
      </trkpt>
      <trkpt lat="44.57322" lon="1.04587">
        <ele>210.19</ele>
        <time>2016-05-05T08:26:36Z</time>
      </trkpt>
      <trkpt lat="44.57316" lon="1.0459">
        <ele>210.19</ele>
        <time>2016-05-05T08:26:40Z</time>
      </trkpt>
      <trkpt lat="44.57288" lon="1.04622">
        <ele>214.51</ele>
        <time>2016-05-05T08:26:55Z</time>
      </trkpt>
      <trkpt lat="44.57268" lon="1.04642">
        <ele>212.59</ele>
        <time>2016-05-05T08:27:07Z</time>
      </trkpt>
      <trkpt lat="44.57241" lon="1.04654">
        <ele>212.59</ele>
        <time>2016-05-05T08:27:20Z</time>
      </trkpt>
      <trkpt lat="44.57227" lon="1.04665">
        <ele>209.7</ele>
        <time>2016-05-05T08:27:28Z</time>
      </trkpt>
      <trkpt lat="44.57202" lon="1.04689">
        <ele>205.86</ele>
        <time>2016-05-05T08:27:44Z</time>
      </trkpt>
      <trkpt lat="44.57199" lon="1.04692">
        <ele>205.86</ele>
        <time>2016-05-05T08:27:46Z</time>
      </trkpt>
      <trkpt lat="44.57191" lon="1.04702">
        <ele>206.82</ele>
        <time>2016-05-05T08:27:51Z</time>
      </trkpt>
      <trkpt lat="44.57173" lon="1.04724">
        <ele>204.42</ele>
        <time>2016-05-05T08:28:03Z</time>
      </trkpt>
      <trkpt lat="44.57167" lon="1.04729">
        <ele>202.98</ele>
        <time>2016-05-05T08:28:06Z</time>
      </trkpt>
      <trkpt lat="44.57151" lon="1.04759">
        <ele>200.57</ele>
        <time>2016-05-05T08:28:20Z</time>
      </trkpt>
      <trkpt lat="44.5715" lon="1.04763">
        <ele>201.05</ele>
        <time>2016-05-05T08:28:21Z</time>
      </trkpt>
      <trkpt lat="44.57145" lon="1.04783">
        <ele>212.11</ele>
        <time>2016-05-05T08:28:37Z</time>
      </trkpt>
      <trkpt lat="44.57141" lon="1.04788">
        <ele>219.32</ele>
        <time>2016-05-05T08:28:56Z</time>
      </trkpt>
      <trkpt lat="44.57137" lon="1.04793">
        <ele>224.12</ele>
        <time>2016-05-05T08:29:08Z</time>
      </trkpt>
      <trkpt lat="44.57135" lon="1.04796">
        <ele>224.12</ele>
        <time>2016-05-05T08:29:12Z</time>
      </trkpt>
      <trkpt lat="44.5713" lon="1.04801">
        <ele>225.57</ele>
        <time>2016-05-05T08:29:17Z</time>
      </trkpt>
      <trkpt lat="44.57122" lon="1.04805">
        <ele>227.49</ele>
        <time>2016-05-05T08:29:22Z</time>
      </trkpt>
      <trkpt lat="44.57099" lon="1.04806">
        <ele>230.85</ele>
        <time>2016-05-05T08:29:33Z</time>
      </trkpt>
      <trkpt lat="44.57067" lon="1.04809">
        <ele>232.78</ele>
        <time>2016-05-05T08:29:49Z</time>
      </trkpt>
      <trkpt lat="44.57059" lon="1.04807">
        <ele>232.3</ele>
        <time>2016-05-05T08:29:53Z</time>
      </trkpt>
      <trkpt lat="44.57051" lon="1.04806">
        <ele>232.3</ele>
        <time>2016-05-05T08:29:57Z</time>
      </trkpt>
      <trkpt lat="44.57021" lon="1.04813">
        <ele>235.18</ele>
        <time>2016-05-05T08:30:12Z</time>
      </trkpt>
      <trkpt lat="44.56993" lon="1.0482">
        <ele>237.58</ele>
        <time>2016-05-05T08:30:26Z</time>
      </trkpt>
      <trkpt lat="44.56971" lon="1.04826">
        <ele>239.99</ele>
        <time>2016-05-05T08:30:39Z</time>
      </trkpt>
      <trkpt lat="44.56952" lon="1.04834">
        <ele>240.95</ele>
        <time>2016-05-05T08:30:54Z</time>
      </trkpt>
      <trkpt lat="44.56948" lon="1.04837">
        <ele>240.95</ele>
        <time>2016-05-05T08:30:57Z</time>
      </trkpt>
      <trkpt lat="44.56941" lon="1.04842">
        <ele>241.43</ele>
        <time>2016-05-05T08:31:03Z</time>
      </trkpt>
      <trkpt lat="44.56936" lon="1.04851">
        <ele>242.39</ele>
        <time>2016-05-05T08:31:09Z</time>
      </trkpt>
      <trkpt lat="44.5692" lon="1.0487">
        <ele>244.79</ele>
        <time>2016-05-05T08:31:25Z</time>
      </trkpt>
      <trkpt lat="44.56915" lon="1.04875">
        <ele>244.79</ele>
        <time>2016-05-05T08:31:29Z</time>
      </trkpt>
      <trkpt lat="44.56914" lon="1.04881">
        <ele>245.75</ele>
        <time>2016-05-05T08:31:32Z</time>
      </trkpt>
      <trkpt lat="44.56914" lon="1.04892">
        <ele>249.12</ele>
        <time>2016-05-05T08:31:36Z</time>
      </trkpt>
      <trkpt lat="44.56918" lon="1.04901">
        <ele>250.56</ele>
        <time>2016-05-05T08:31:42Z</time>
      </trkpt>
      <trkpt lat="44.56922" lon="1.04905">
        <ele>250.08</ele>
        <time>2016-05-05T08:31:46Z</time>
      </trkpt>
      <trkpt lat="44.5693" lon="1.04926">
        <ele>251.52</ele>
        <time>2016-05-05T08:32:00Z</time>
      </trkpt>
      <trkpt lat="44.56941" lon="1.04957">
        <ele>254.89</ele>
        <time>2016-05-05T08:32:14Z</time>
      </trkpt>
      <trkpt lat="44.5695" lon="1.04992">
        <ele>257.29</ele>
        <time>2016-05-05T08:32:28Z</time>
      </trkpt>
      <trkpt lat="44.56958" lon="1.05021">
        <ele>257.77</ele>
        <time>2016-05-05T08:32:42Z</time>
      </trkpt>
      <trkpt lat="44.5696" lon="1.05043">
        <ele>257.77</ele>
        <time>2016-05-05T08:32:54Z</time>
      </trkpt>
      <trkpt lat="44.56971" lon="1.05078">
        <ele>254.41</ele>
        <time>2016-05-05T08:33:04Z</time>
      </trkpt>
      <trkpt lat="44.56982" lon="1.05138">
        <ele>256.81</ele>
        <time>2016-05-05T08:33:16Z</time>
      </trkpt>
      <trkpt lat="44.56985" lon="1.05167">
        <ele>256.81</ele>
        <time>2016-05-05T08:33:23Z</time>
      </trkpt>
      <trkpt lat="44.56989" lon="1.0519">
        <ele>257.77</ele>
        <time>2016-05-05T08:33:33Z</time>
      </trkpt>
      <trkpt lat="44.56994" lon="1.052">
        <ele>258.25</ele>
        <time>2016-05-05T08:33:45Z</time>
      </trkpt>
      <trkpt lat="44.56996" lon="1.05216">
        <ele>259.21</ele>
        <time>2016-05-05T08:33:58Z</time>
      </trkpt>
      <trkpt lat="44.56999" lon="1.05225">
        <ele>258.73</ele>
        <time>2016-05-05T08:34:10Z</time>
      </trkpt>
      <trkpt lat="44.57001" lon="1.05266">
        <ele>253.93</ele>
        <time>2016-05-05T08:34:21Z</time>
      </trkpt>
      <trkpt lat="44.56998" lon="1.05327">
        <ele>250.56</ele>
        <time>2016-05-05T08:34:34Z</time>
      </trkpt>
      <trkpt lat="44.56996" lon="1.05346">
        <ele>250.56</ele>
        <time>2016-05-05T08:34:41Z</time>
      </trkpt>
      <trkpt lat="44.56994" lon="1.05365">
        <ele>253.93</ele>
        <time>2016-05-05T08:34:50Z</time>
      </trkpt>
      <trkpt lat="44.56986" lon="1.05375">
        <ele>253.44</ele>
        <time>2016-05-05T08:34:55Z</time>
      </trkpt>
      <trkpt lat="44.57005" lon="1.05421">
        <ele>254.41</ele>
        <time>2016-05-05T08:35:08Z</time>
      </trkpt>
      <trkpt lat="44.57018" lon="1.05453">
        <ele>255.85</ele>
        <time>2016-05-05T08:35:20Z</time>
      </trkpt>
      <trkpt lat="44.57028" lon="1.05465">
        <ele>258.73</ele>
        <time>2016-05-05T08:35:27Z</time>
      </trkpt>
      <trkpt lat="44.57036" lon="1.05489">
        <ele>261.62</ele>
        <time>2016-05-05T08:35:39Z</time>
      </trkpt>
      <trkpt lat="44.57048" lon="1.05507">
        <ele>264.98</ele>
        <time>2016-05-05T08:35:49Z</time>
      </trkpt>
      <trkpt lat="44.57066" lon="1.05527">
        <ele>265.46</ele>
        <time>2016-05-05T08:36:01Z</time>
      </trkpt>
      <trkpt lat="44.57072" lon="1.05536">
        <ele>265.94</ele>
        <time>2016-05-05T08:36:07Z</time>
      </trkpt>
      <trkpt lat="44.57085" lon="1.05555">
        <ele>268.83</ele>
        <time>2016-05-05T08:36:17Z</time>
      </trkpt>
      <trkpt lat="44.57094" lon="1.05573">
        <ele>269.31</ele>
        <time>2016-05-05T08:36:26Z</time>
      </trkpt>
      <trkpt lat="44.57101" lon="1.05596">
        <ele>267.38</ele>
        <time>2016-05-05T08:36:40Z</time>
      </trkpt>
      <trkpt lat="44.57105" lon="1.05605">
        <ele>265.46</ele>
        <time>2016-05-05T08:36:45Z</time>
      </trkpt>
      <trkpt lat="44.57114" lon="1.05635">
        <ele>263.06</ele>
        <time>2016-05-05T08:36:59Z</time>
      </trkpt>
      <trkpt lat="44.5712" lon="1.05653">
        <ele>263.06</ele>
        <time>2016-05-05T08:37:07Z</time>
      </trkpt>
      <trkpt lat="44.57125" lon="1.0567">
        <ele>263.06</ele>
        <time>2016-05-05T08:37:15Z</time>
      </trkpt>
      <trkpt lat="44.57129" lon="1.0568">
        <ele>265.46</ele>
        <time>2016-05-05T08:37:22Z</time>
      </trkpt>
      <trkpt lat="44.57132" lon="1.05685">
        <ele>264.5</ele>
        <time>2016-05-05T08:37:26Z</time>
      </trkpt>
      <trkpt lat="44.57133" lon="1.0569">
        <ele>264.98</ele>
        <time>2016-05-05T08:37:29Z</time>
      </trkpt>
      <trkpt lat="44.57136" lon="1.057">
        <ele>266.9</ele>
        <time>2016-05-05T08:37:35Z</time>
      </trkpt>
      <trkpt lat="44.57139" lon="1.05708">
        <ele>268.83</ele>
        <time>2016-05-05T08:37:39Z</time>
      </trkpt>
      <trkpt lat="44.5714" lon="1.05719">
        <ele>272.67</ele>
        <time>2016-05-05T08:37:51Z</time>
      </trkpt>
      <trkpt lat="44.5714" lon="1.05721">
        <ele>275.56</ele>
        <time>2016-05-05T08:38:24Z</time>
      </trkpt>
      <trkpt lat="44.57139" lon="1.05719">
        <ele>278.44</ele>
        <time>2016-05-05T08:39:04Z</time>
      </trkpt>
      <trkpt lat="44.57141" lon="1.05721">
        <ele>278.92</ele>
        <time>2016-05-05T08:39:35Z</time>
      </trkpt>
      <trkpt lat="44.57143" lon="1.05722">
        <ele>279.88</ele>
        <time>2016-05-05T08:39:46Z</time>
      </trkpt>
      <trkpt lat="44.5715" lon="1.05723">
        <ele>278.92</ele>
        <time>2016-05-05T08:40:01Z</time>
      </trkpt>
      <trkpt lat="44.57152" lon="1.05721">
        <ele>276.52</ele>
        <time>2016-05-05T08:40:06Z</time>
      </trkpt>
      <trkpt lat="44.57157" lon="1.05712">
        <ele>274.11</ele>
        <time>2016-05-05T08:40:12Z</time>
      </trkpt>
      <trkpt lat="44.57159" lon="1.0571">
        <ele>273.63</ele>
        <time>2016-05-05T08:40:27Z</time>
      </trkpt>
      <trkpt lat="44.57158" lon="1.0571">
        <ele>273.15</ele>
        <time>2016-05-05T08:40:55Z</time>
      </trkpt>
      <trkpt lat="44.57162" lon="1.05713">
        <ele>268.83</ele>
        <time>2016-05-05T08:41:30Z</time>
      </trkpt>
      <trkpt lat="44.57158" lon="1.05706">
        <ele>270.75</ele>
        <time>2016-05-05T08:41:52Z</time>
      </trkpt>
      <trkpt lat="44.57156" lon="1.05708">
        <ele>272.19</ele>
        <time>2016-05-05T08:42:17Z</time>
      </trkpt>
      <trkpt lat="44.57155" lon="1.0571">
        <ele>272.67</ele>
        <time>2016-05-05T08:42:42Z</time>
      </trkpt>
      <trkpt lat="44.57158" lon="1.05708">
        <ele>270.75</ele>
        <time>2016-05-05T08:43:04Z</time>
      </trkpt>
      <trkpt lat="44.57158" lon="1.05706">
        <ele>274.11</ele>
        <time>2016-05-05T08:43:27Z</time>
      </trkpt>
      <trkpt lat="44.57159" lon="1.05706">
        <ele>276.52</ele>
        <time>2016-05-05T08:43:46Z</time>
      </trkpt>
      <trkpt lat="44.57157" lon="1.05704">
        <ele>276.04</ele>
        <time>2016-05-05T08:44:15Z</time>
      </trkpt>
      <trkpt lat="44.57159" lon="1.05705">
        <ele>271.71</ele>
        <time>2016-05-05T08:44:38Z</time>
      </trkpt>
      <trkpt lat="44.5716" lon="1.05705">
        <ele>270.75</ele>
        <time>2016-05-05T08:45:07Z</time>
      </trkpt>
      <trkpt lat="44.5716" lon="1.05705">
        <ele>270.27</ele>
        <time>2016-05-05T08:45:09Z</time>
      </trkpt>
      <trkpt lat="44.57164" lon="1.057">
        <ele>270.27</ele>
        <time>2016-05-05T08:45:13Z</time>
      </trkpt>
      <trkpt lat="44.57182" lon="1.05678">
        <ele>270.75</ele>
        <time>2016-05-05T08:45:20Z</time>
      </trkpt>
      <trkpt lat="44.57203" lon="1.05613">
        <ele>267.86</ele>
        <time>2016-05-05T08:45:31Z</time>
      </trkpt>
      <trkpt lat="44.57214" lon="1.05588">
        <ele>266.9</ele>
        <time>2016-05-05T08:45:35Z</time>
      </trkpt>
      <trkpt lat="44.57222" lon="1.05566">
        <ele>265.94</ele>
        <time>2016-05-05T08:45:39Z</time>
      </trkpt>
      <trkpt lat="44.57233" lon="1.05517">
        <ele>264.5</ele>
        <time>2016-05-05T08:45:49Z</time>
      </trkpt>
      <trkpt lat="44.5725" lon="1.05478">
        <ele>263.06</ele>
        <time>2016-05-05T08:45:56Z</time>
      </trkpt>
      <trkpt lat="44.57267" lon="1.05456">
        <ele>262.58</ele>
        <time>2016-05-05T08:46:00Z</time>
      </trkpt>
      <trkpt lat="44.57279" lon="1.05435">
        <ele>261.14</ele>
        <time>2016-05-05T08:46:05Z</time>
      </trkpt>
      <trkpt lat="44.57285" lon="1.0542">
        <ele>260.65</ele>
        <time>2016-05-05T08:46:08Z</time>
      </trkpt>
      <trkpt lat="44.57287" lon="1.05392">
        <ele>260.17</ele>
        <time>2016-05-05T08:46:13Z</time>
      </trkpt>
      <trkpt lat="44.57284" lon="1.05334">
        <ele>258.25</ele>
        <time>2016-05-05T08:46:25Z</time>
      </trkpt>
      <trkpt lat="44.5728" lon="1.05298">
        <ele>258.73</ele>
        <time>2016-05-05T08:46:35Z</time>
      </trkpt>
      <trkpt lat="44.57285" lon="1.05261">
        <ele>260.17</ele>
        <time>2016-05-05T08:46:47Z</time>
      </trkpt>
      <trkpt lat="44.57295" lon="1.05225">
        <ele>264.02</ele>
        <time>2016-05-05T08:47:00Z</time>
      </trkpt>
      <trkpt lat="44.57299" lon="1.05218">
        <ele>264.5</ele>
        <time>2016-05-05T08:47:04Z</time>
      </trkpt>
      <trkpt lat="44.57311" lon="1.05212">
        <ele>266.42</ele>
        <time>2016-05-05T08:47:12Z</time>
      </trkpt>
      <trkpt lat="44.57315" lon="1.05212">
        <ele>266.9</ele>
        <time>2016-05-05T08:47:15Z</time>
      </trkpt>
      <trkpt lat="44.5732" lon="1.05215">
        <ele>267.38</ele>
        <time>2016-05-05T08:47:19Z</time>
      </trkpt>
      <trkpt lat="44.57335" lon="1.05232">
        <ele>271.71</ele>
        <time>2016-05-05T08:47:33Z</time>
      </trkpt>
      <trkpt lat="44.57336" lon="1.05234">
        <ele>272.19</ele>
        <time>2016-05-05T08:47:34Z</time>
      </trkpt>
      <trkpt lat="44.5734" lon="1.05242">
        <ele>274.11</ele>
        <time>2016-05-05T08:47:39Z</time>
      </trkpt>
      <trkpt lat="44.57344" lon="1.0525">
        <ele>274.59</ele>
        <time>2016-05-05T08:47:43Z</time>
      </trkpt>
      <trkpt lat="44.57347" lon="1.05256">
        <ele>275.07</ele>
        <time>2016-05-05T08:47:47Z</time>
      </trkpt>
      <trkpt lat="44.57352" lon="1.05263">
        <ele>276.52</ele>
        <time>2016-05-05T08:47:52Z</time>
      </trkpt>
      <trkpt lat="44.5738" lon="1.05288">
        <ele>276.52</ele>
        <time>2016-05-05T08:48:06Z</time>
      </trkpt>
      <trkpt lat="44.57413" lon="1.05302">
        <ele>276.04</ele>
        <time>2016-05-05T08:48:17Z</time>
      </trkpt>
      <trkpt lat="44.57425" lon="1.05307">
        <ele>278.92</ele>
        <time>2016-05-05T08:48:25Z</time>
      </trkpt>
      <trkpt lat="44.57449" lon="1.05314">
        <ele>281.32</ele>
        <time>2016-05-05T08:48:38Z</time>
      </trkpt>
      <trkpt lat="44.57489" lon="1.05316">
        <ele>283.73</ele>
        <time>2016-05-05T08:48:52Z</time>
      </trkpt>
      <trkpt lat="44.57518" lon="1.05295">
        <ele>283.73</ele>
        <time>2016-05-05T08:49:02Z</time>
      </trkpt>
      <trkpt lat="44.57546" lon="1.05268">
        <ele>286.61</ele>
        <time>2016-05-05T08:49:14Z</time>
      </trkpt>
      <trkpt lat="44.57564" lon="1.05234">
        <ele>285.65</ele>
        <time>2016-05-05T08:49:28Z</time>
      </trkpt>
      <trkpt lat="44.57583" lon="1.05206">
        <ele>284.21</ele>
        <time>2016-05-05T08:49:41Z</time>
      </trkpt>
      <trkpt lat="44.57604" lon="1.05174">
        <ele>280.36</ele>
        <time>2016-05-05T08:49:51Z</time>
      </trkpt>
      <trkpt lat="44.57621" lon="1.05145">
        <ele>277</ele>
        <time>2016-05-05T08:50:03Z</time>
      </trkpt>
      <trkpt lat="44.57636" lon="1.05124">
        <ele>274.59</ele>
        <time>2016-05-05T08:50:14Z</time>
      </trkpt>
      <trkpt lat="44.57648" lon="1.05106">
        <ele>278.44</ele>
        <time>2016-05-05T08:50:26Z</time>
      </trkpt>
      <trkpt lat="44.57649" lon="1.05104">
        <ele>278.92</ele>
        <time>2016-05-05T08:50:27Z</time>
      </trkpt>
      <trkpt lat="44.57664" lon="1.05079">
        <ele>277.96</ele>
        <time>2016-05-05T08:50:40Z</time>
      </trkpt>
      <trkpt lat="44.57665" lon="1.05077">
        <ele>277.96</ele>
        <time>2016-05-05T08:50:41Z</time>
      </trkpt>
      <trkpt lat="44.57676" lon="1.05055">
        <ele>279.88</ele>
        <time>2016-05-05T08:50:52Z</time>
      </trkpt>
      <trkpt lat="44.57678" lon="1.05053">
        <ele>279.88</ele>
        <time>2016-05-05T08:50:53Z</time>
      </trkpt>
      <trkpt lat="44.57691" lon="1.05011">
        <ele>275.56</ele>
        <time>2016-05-05T08:51:06Z</time>
      </trkpt>
      <trkpt lat="44.57708" lon="1.0498">
        <ele>273.15</ele>
        <time>2016-05-05T08:51:16Z</time>
      </trkpt>
      <trkpt lat="44.57733" lon="1.04942">
        <ele>268.83</ele>
        <time>2016-05-05T08:51:26Z</time>
      </trkpt>
      <trkpt lat="44.57746" lon="1.04926">
        <ele>268.35</ele>
        <time>2016-05-05T08:51:30Z</time>
      </trkpt>
      <trkpt lat="44.57763" lon="1.04914">
        <ele>267.86</ele>
        <time>2016-05-05T08:51:34Z</time>
      </trkpt>
      <trkpt lat="44.57812" lon="1.04866">
        <ele>267.86</ele>
        <time>2016-05-05T08:51:47Z</time>
      </trkpt>
      <trkpt lat="44.57843" lon="1.04822">
        <ele>263.06</ele>
        <time>2016-05-05T08:51:59Z</time>
      </trkpt>
      <trkpt lat="44.57877" lon="1.04799">
        <ele>263.54</ele>
        <time>2016-05-05T08:52:10Z</time>
      </trkpt>
      <trkpt lat="44.57905" lon="1.04788">
        <ele>262.1</ele>
        <time>2016-05-05T08:52:17Z</time>
      </trkpt>
      <trkpt lat="44.57912" lon="1.04787">
        <ele>261.14</ele>
        <time>2016-05-05T08:52:19Z</time>
      </trkpt>
      <trkpt lat="44.57927" lon="1.04784">
        <ele>259.69</ele>
        <time>2016-05-05T08:52:23Z</time>
      </trkpt>
      <trkpt lat="44.57957" lon="1.04788">
        <ele>256.81</ele>
        <time>2016-05-05T08:52:30Z</time>
      </trkpt>
      <trkpt lat="44.57977" lon="1.04788">
        <ele>255.37</ele>
        <time>2016-05-05T08:52:34Z</time>
      </trkpt>
      <trkpt lat="44.58026" lon="1.04798">
        <ele>251.04</ele>
        <time>2016-05-05T08:52:45Z</time>
      </trkpt>
      <trkpt lat="44.58047" lon="1.04809">
        <ele>249.12</ele>
        <time>2016-05-05T08:52:54Z</time>
      </trkpt>
      <trkpt lat="44.58068" lon="1.04824">
        <ele>248.16</ele>
        <time>2016-05-05T08:53:00Z</time>
      </trkpt>
      <trkpt lat="44.5813" lon="1.04876">
        <ele>247.2</ele>
        <time>2016-05-05T08:53:17Z</time>
      </trkpt>
      <trkpt lat="44.58181" lon="1.04912">
        <ele>247.68</ele>
        <time>2016-05-05T08:53:33Z</time>
      </trkpt>
      <trkpt lat="44.58224" lon="1.04941">
        <ele>247.2</ele>
        <time>2016-05-05T08:53:46Z</time>
      </trkpt>
      <trkpt lat="44.5824" lon="1.04953">
        <ele>246.72</ele>
        <time>2016-05-05T08:53:50Z</time>
      </trkpt>
      <trkpt lat="44.58261" lon="1.04956">
        <ele>245.75</ele>
        <time>2016-05-05T08:53:54Z</time>
      </trkpt>
      <trkpt lat="44.58287" lon="1.04952">
        <ele>243.83</ele>
        <time>2016-05-05T08:53:58Z</time>
      </trkpt>
      <trkpt lat="44.58301" lon="1.04947">
        <ele>242.39</ele>
        <time>2016-05-05T08:54:00Z</time>
      </trkpt>
      <trkpt lat="44.58361" lon="1.04926">
        <ele>238.54</ele>
        <time>2016-05-05T08:54:10Z</time>
      </trkpt>
      <trkpt lat="44.58375" lon="1.04901">
        <ele>240.95</ele>
        <time>2016-05-05T08:54:16Z</time>
      </trkpt>
      <trkpt lat="44.58379" lon="1.04846">
        <ele>241.43</ele>
        <time>2016-05-05T08:54:28Z</time>
      </trkpt>
      <trkpt lat="44.5837" lon="1.04776">
        <ele>239.99</ele>
        <time>2016-05-05T08:54:43Z</time>
      </trkpt>
      <trkpt lat="44.58355" lon="1.04738">
        <ele>238.06</ele>
        <time>2016-05-05T08:54:50Z</time>
      </trkpt>
      <trkpt lat="44.58318" lon="1.04642">
        <ele>231.33</ele>
        <time>2016-05-05T08:55:01Z</time>
      </trkpt>
      <trkpt lat="44.58315" lon="1.04633">
        <ele>230.85</ele>
        <time>2016-05-05T08:55:02Z</time>
      </trkpt>
      <trkpt lat="44.58287" lon="1.04561">
        <ele>231.81</ele>
        <time>2016-05-05T08:55:14Z</time>
      </trkpt>
      <trkpt lat="44.58286" lon="1.04557">
        <ele>232.3</ele>
        <time>2016-05-05T08:55:15Z</time>
      </trkpt>
      <trkpt lat="44.58312" lon="1.04538">
        <ele>232.3</ele>
        <time>2016-05-05T08:55:25Z</time>
      </trkpt>
      <trkpt lat="44.58373" lon="1.04506">
        <ele>229.89</ele>
        <time>2016-05-05T08:55:37Z</time>
      </trkpt>
      <trkpt lat="44.58427" lon="1.04478">
        <ele>226.05</ele>
        <time>2016-05-05T08:55:45Z</time>
      </trkpt>
      <trkpt lat="44.58441" lon="1.04467">
        <ele>225.09</ele>
        <time>2016-05-05T08:55:47Z</time>
      </trkpt>
      <trkpt lat="44.5846" lon="1.04446">
        <ele>222.68</ele>
        <time>2016-05-05T08:55:50Z</time>
      </trkpt>
      <trkpt lat="44.58485" lon="1.04396">
        <ele>217.88</ele>
        <time>2016-05-05T08:55:59Z</time>
      </trkpt>
      <trkpt lat="44.58491" lon="1.04379">
        <ele>215.47</ele>
        <time>2016-05-05T08:56:03Z</time>
      </trkpt>
      <trkpt lat="44.58486" lon="1.0435">
        <ele>212.11</ele>
        <time>2016-05-05T08:56:08Z</time>
      </trkpt>
      <trkpt lat="44.58467" lon="1.04327">
        <ele>207.78</ele>
        <time>2016-05-05T08:56:14Z</time>
      </trkpt>
      <trkpt lat="44.58457" lon="1.04312">
        <ele>205.38</ele>
        <time>2016-05-05T08:56:17Z</time>
      </trkpt>
      <trkpt lat="44.58415" lon="1.04187">
        <ele>209.7</ele>
        <time>2016-05-05T08:56:38Z</time>
      </trkpt>
      <trkpt lat="44.58389" lon="1.04106">
        <ele>214.99</ele>
        <time>2016-05-05T08:56:54Z</time>
      </trkpt>
      <trkpt lat="44.58387" lon="1.04049">
        <ele>222.68</ele>
        <time>2016-05-05T08:57:06Z</time>
      </trkpt>
      <trkpt lat="44.58418" lon="1.03985">
        <ele>225.09</ele>
        <time>2016-05-05T08:57:21Z</time>
      </trkpt>
      <trkpt lat="44.58447" lon="1.039">
        <ele>229.89</ele>
        <time>2016-05-05T08:57:39Z</time>
      </trkpt>
      <trkpt lat="44.58468" lon="1.03821">
        <ele>231.33</ele>
        <time>2016-05-05T08:57:56Z</time>
      </trkpt>
      <trkpt lat="44.58508" lon="1.0374">
        <ele>227.97</ele>
        <time>2016-05-05T08:58:10Z</time>
      </trkpt>
      <trkpt lat="44.58524" lon="1.0371">
        <ele>226.05</ele>
        <time>2016-05-05T08:58:15Z</time>
      </trkpt>
      <trkpt lat="44.58554" lon="1.03681">
        <ele>221.72</ele>
        <time>2016-05-05T08:58:25Z</time>
      </trkpt>
      <trkpt lat="44.58581" lon="1.03674">
        <ele>217.88</ele>
        <time>2016-05-05T08:58:33Z</time>
      </trkpt>
      <trkpt lat="44.58587" lon="1.03667">
        <ele>216.91</ele>
        <time>2016-05-05T08:58:35Z</time>
      </trkpt>
      <trkpt lat="44.5862" lon="1.03596">
        <ele>213.55</ele>
        <time>2016-05-05T08:58:45Z</time>
      </trkpt>
      <trkpt lat="44.58631" lon="1.03571">
        <ele>212.59</ele>
        <time>2016-05-05T08:58:49Z</time>
      </trkpt>
      <trkpt lat="44.58638" lon="1.03562">
        <ele>212.59</ele>
        <time>2016-05-05T08:58:51Z</time>
      </trkpt>
      <trkpt lat="44.58646" lon="1.03554">
        <ele>213.07</ele>
        <time>2016-05-05T08:58:53Z</time>
      </trkpt>
      <trkpt lat="44.58679" lon="1.03508">
        <ele>213.55</ele>
        <time>2016-05-05T08:59:05Z</time>
      </trkpt>
      <trkpt lat="44.58725" lon="1.03459">
        <ele>212.59</ele>
        <time>2016-05-05T08:59:18Z</time>
      </trkpt>
      <trkpt lat="44.58738" lon="1.03438">
        <ele>212.11</ele>
        <time>2016-05-05T08:59:22Z</time>
      </trkpt>
      <trkpt lat="44.58753" lon="1.03412">
        <ele>210.19</ele>
        <time>2016-05-05T08:59:27Z</time>
      </trkpt>
      <trkpt lat="44.58766" lon="1.03383">
        <ele>208.26</ele>
        <time>2016-05-05T08:59:33Z</time>
      </trkpt>
      <trkpt lat="44.58774" lon="1.03365">
        <ele>204.9</ele>
        <time>2016-05-05T08:59:44Z</time>
      </trkpt>
      <trkpt lat="44.58776" lon="1.03361">
        <ele>205.38</ele>
        <time>2016-05-05T08:59:57Z</time>
      </trkpt>
      <trkpt lat="44.58779" lon="1.03354">
        <ele>206.82</ele>
        <time>2016-05-05T09:00:26Z</time>
      </trkpt>
      <trkpt lat="44.58796" lon="1.03319">
        <ele>203.94</ele>
        <time>2016-05-05T09:00:36Z</time>
      </trkpt>
      <trkpt lat="44.5882" lon="1.03269">
        <ele>199.61</ele>
        <time>2016-05-05T09:00:46Z</time>
      </trkpt>
      <trkpt lat="44.58823" lon="1.03264">
        <ele>199.13</ele>
        <time>2016-05-05T09:00:47Z</time>
      </trkpt>
      <trkpt lat="44.58836" lon="1.03276">
        <ele>190.96</ele>
        <time>2016-05-05T09:00:55Z</time>
      </trkpt>
      <trkpt lat="44.58849" lon="1.03307">
        <ele>180.87</ele>
        <time>2016-05-05T09:01:02Z</time>
      </trkpt>
      <trkpt lat="44.58852" lon="1.03328">
        <ele>180.38</ele>
        <time>2016-05-05T09:01:06Z</time>
      </trkpt>
      <trkpt lat="44.58854" lon="1.03341">
        <ele>180.38</ele>
        <time>2016-05-05T09:01:09Z</time>
      </trkpt>
      <trkpt lat="44.58884" lon="1.0337">
        <ele>180.87</ele>
        <time>2016-05-05T09:01:15Z</time>
      </trkpt>
      <trkpt lat="44.58901" lon="1.03383">
        <ele>180.87</ele>
        <time>2016-05-05T09:01:18Z</time>
      </trkpt>
      <trkpt lat="44.5893" lon="1.03421">
        <ele>178.94</ele>
        <time>2016-05-05T09:01:27Z</time>
      </trkpt>
      <trkpt lat="44.58947" lon="1.03433">
        <ele>176.54</ele>
        <time>2016-05-05T09:01:36Z</time>
      </trkpt>
      <trkpt lat="44.58984" lon="1.03441">
        <ele>176.06</ele>
        <time>2016-05-05T09:01:47Z</time>
      </trkpt>
      <trkpt lat="44.58994" lon="1.03444">
        <ele>175.1</ele>
        <time>2016-05-05T09:01:50Z</time>
      </trkpt>
      <trkpt lat="44.5899" lon="1.03464">
        <ele>169.81</ele>
        <time>2016-05-05T09:01:56Z</time>
      </trkpt>
      <trkpt lat="44.58974" lon="1.03481">
        <ele>165.48</ele>
        <time>2016-05-05T09:02:01Z</time>
      </trkpt>
      <trkpt lat="44.58964" lon="1.03504">
        <ele>163.08</ele>
        <time>2016-05-05T09:02:05Z</time>
      </trkpt>
      <trkpt lat="44.58961" lon="1.03516">
        <ele>161.64</ele>
        <time>2016-05-05T09:02:07Z</time>
      </trkpt>
      <trkpt lat="44.58973" lon="1.03518">
        <ele>161.16</ele>
        <time>2016-05-05T09:02:14Z</time>
      </trkpt>
      <trkpt lat="44.58988" lon="1.03512">
        <ele>160.68</ele>
        <time>2016-05-05T09:02:19Z</time>
      </trkpt>
      <trkpt lat="44.58997" lon="1.03511">
        <ele>160.68</ele>
        <time>2016-05-05T09:02:21Z</time>
      </trkpt>
      <trkpt lat="44.5905" lon="1.03527">
        <ele>157.31</ele>
        <time>2016-05-05T09:02:31Z</time>
      </trkpt>
      <trkpt lat="44.59065" lon="1.03528">
        <ele>156.83</ele>
        <time>2016-05-05T09:02:34Z</time>
      </trkpt>
      <trkpt lat="44.5907" lon="1.03545">
        <ele>154.43</ele>
        <time>2016-05-05T09:02:39Z</time>
      </trkpt>
      <trkpt lat="44.59067" lon="1.03577">
        <ele>150.58</ele>
        <time>2016-05-05T09:02:45Z</time>
      </trkpt>
      <trkpt lat="44.59078" lon="1.03587">
        <ele>148.66</ele>
        <time>2016-05-05T09:02:53Z</time>
      </trkpt>
      <trkpt lat="44.59095" lon="1.03601">
        <ele>148.66</ele>
        <time>2016-05-05T09:03:01Z</time>
      </trkpt>
      <trkpt lat="44.59109" lon="1.03622">
        <ele>149.14</ele>
        <time>2016-05-05T09:03:07Z</time>
      </trkpt>
      <trkpt lat="44.59143" lon="1.0365">
        <ele>148.66</ele>
        <time>2016-05-05T09:03:16Z</time>
      </trkpt>
      <trkpt lat="44.59147" lon="1.03693">
        <ele>144.82</ele>
        <time>2016-05-05T09:03:25Z</time>
      </trkpt>
      <trkpt lat="44.59146" lon="1.03698">
        <ele>144.34</ele>
        <time>2016-05-05T09:03:26Z</time>
      </trkpt>
      <trkpt lat="44.59146" lon="1.03744">
        <ele>140.01</ele>
        <time>2016-05-05T09:03:36Z</time>
      </trkpt>
      <trkpt lat="44.59146" lon="1.03748">
        <ele>140.01</ele>
        <time>2016-05-05T09:03:37Z</time>
      </trkpt>
      <trkpt lat="44.59141" lon="1.03778">
        <ele>141.93</ele>
        <time>2016-05-05T09:03:44Z</time>
      </trkpt>
      <trkpt lat="44.59147" lon="1.03796">
        <ele>142.41</ele>
        <time>2016-05-05T09:03:48Z</time>
      </trkpt>
      <trkpt lat="44.5918" lon="1.03818">
        <ele>143.37</ele>
        <time>2016-05-05T09:03:59Z</time>
      </trkpt>
      <trkpt lat="44.592" lon="1.03795">
        <ele>146.26</ele>
        <time>2016-05-05T09:04:08Z</time>
      </trkpt>
      <trkpt lat="44.59221" lon="1.03781">
        <ele>148.18</ele>
        <time>2016-05-05T09:04:18Z</time>
      </trkpt>
      <trkpt lat="44.59222" lon="1.03776">
        <ele>150.58</ele>
        <time>2016-05-05T09:04:31Z</time>
      </trkpt>
      <trkpt lat="44.59224" lon="1.03775">
        <ele>151.54</ele>
        <time>2016-05-05T09:05:01Z</time>
      </trkpt>
      <trkpt lat="44.59223" lon="1.03776">
        <ele>150.1</ele>
        <time>2016-05-05T09:05:13Z</time>
      </trkpt>
      <trkpt lat="44.59227" lon="1.03767">
        <ele>148.66</ele>
        <time>2016-05-05T09:05:19Z</time>
      </trkpt>
      <trkpt lat="44.59242" lon="1.03732">
        <ele>150.58</ele>
        <time>2016-05-05T09:05:33Z</time>
      </trkpt>
      <trkpt lat="44.59249" lon="1.03729">
        <ele>152.51</ele>
        <time>2016-05-05T09:05:39Z</time>
      </trkpt>
      <trkpt lat="44.59262" lon="1.03725">
        <ele>156.35</ele>
        <time>2016-05-05T09:05:49Z</time>
      </trkpt>
      <trkpt lat="44.59266" lon="1.0372">
        <ele>157.79</ele>
        <time>2016-05-05T09:05:53Z</time>
      </trkpt>
      <trkpt lat="44.59267" lon="1.03707">
        <ele>159.24</ele>
        <time>2016-05-05T09:05:59Z</time>
      </trkpt>
      <trkpt lat="44.59265" lon="1.03677">
        <ele>160.2</ele>
        <time>2016-05-05T09:06:13Z</time>
      </trkpt>
      <trkpt lat="44.59265" lon="1.03675">
        <ele>160.2</ele>
        <time>2016-05-05T09:06:14Z</time>
      </trkpt>
      <trkpt lat="44.59273" lon="1.0365">
        <ele>161.16</ele>
        <time>2016-05-05T09:06:27Z</time>
      </trkpt>
      <trkpt lat="44.59283" lon="1.03626">
        <ele>164.52</ele>
        <time>2016-05-05T09:06:42Z</time>
      </trkpt>
      <trkpt lat="44.59292" lon="1.03608">
        <ele>166.93</ele>
        <time>2016-05-05T09:06:56Z</time>
      </trkpt>
      <trkpt lat="44.59295" lon="1.03598">
        <ele>167.41</ele>
        <time>2016-05-05T09:07:02Z</time>
      </trkpt>
      <trkpt lat="44.59296" lon="1.03591">
        <ele>167.41</ele>
        <time>2016-05-05T09:07:06Z</time>
      </trkpt>
      <trkpt lat="44.59304" lon="1.03561">
        <ele>170.29</ele>
        <time>2016-05-05T09:07:23Z</time>
      </trkpt>
      <trkpt lat="44.59311" lon="1.03534">
        <ele>172.69</ele>
        <time>2016-05-05T09:07:41Z</time>
      </trkpt>
      <trkpt lat="44.59312" lon="1.03527">
        <ele>172.69</ele>
        <time>2016-05-05T09:07:45Z</time>
      </trkpt>
      <trkpt lat="44.59314" lon="1.03522">
        <ele>173.17</ele>
        <time>2016-05-05T09:07:48Z</time>
      </trkpt>
      <trkpt lat="44.59315" lon="1.03516">
        <ele>174.14</ele>
        <time>2016-05-05T09:07:52Z</time>
      </trkpt>
      <trkpt lat="44.59321" lon="1.03493">
        <ele>177.02</ele>
        <time>2016-05-05T09:08:07Z</time>
      </trkpt>
      <trkpt lat="44.59324" lon="1.03489">
        <ele>177.98</ele>
        <time>2016-05-05T09:08:11Z</time>
      </trkpt>
      <trkpt lat="44.59327" lon="1.03511">
        <ele>181.83</ele>
        <time>2016-05-05T09:08:26Z</time>
      </trkpt>
      <trkpt lat="44.5933" lon="1.03532">
        <ele>185.19</ele>
        <time>2016-05-05T09:08:41Z</time>
      </trkpt>
      <trkpt lat="44.59332" lon="1.03538">
        <ele>185.19</ele>
        <time>2016-05-05T09:08:45Z</time>
      </trkpt>
      <trkpt lat="44.59334" lon="1.03551">
        <ele>187.59</ele>
        <time>2016-05-05T09:08:54Z</time>
      </trkpt>
      <trkpt lat="44.59337" lon="1.03565">
        <ele>190</ele>
        <time>2016-05-05T09:09:01Z</time>
      </trkpt>
      <trkpt lat="44.59345" lon="1.03596">
        <ele>193.84</ele>
        <time>2016-05-05T09:09:18Z</time>
      </trkpt>
      <trkpt lat="44.5935" lon="1.03611">
        <ele>193.36</ele>
        <time>2016-05-05T09:09:26Z</time>
      </trkpt>
      <trkpt lat="44.59353" lon="1.03629">
        <ele>194.32</ele>
        <time>2016-05-05T09:09:35Z</time>
      </trkpt>
      <trkpt lat="44.59361" lon="1.03647">
        <ele>196.73</ele>
        <time>2016-05-05T09:09:46Z</time>
      </trkpt>
      <trkpt lat="44.59373" lon="1.03664">
        <ele>202.01</ele>
        <time>2016-05-05T09:10:00Z</time>
      </trkpt>
      <trkpt lat="44.59381" lon="1.03672">
        <ele>203.94</ele>
        <time>2016-05-05T09:10:08Z</time>
      </trkpt>
      <trkpt lat="44.59393" lon="1.03656">
        <ele>204.9</ele>
        <time>2016-05-05T09:10:20Z</time>
      </trkpt>
      <trkpt lat="44.59395" lon="1.03654">
        <ele>204.9</ele>
        <time>2016-05-05T09:10:22Z</time>
      </trkpt>
      <trkpt lat="44.59401" lon="1.03645">
        <ele>205.86</ele>
        <time>2016-05-05T09:10:28Z</time>
      </trkpt>
      <trkpt lat="44.59414" lon="1.03632">
        <ele>207.78</ele>
        <time>2016-05-05T09:10:39Z</time>
      </trkpt>
      <trkpt lat="44.59432" lon="1.03623">
        <ele>211.15</ele>
        <time>2016-05-05T09:10:54Z</time>
      </trkpt>
      <trkpt lat="44.59446" lon="1.03617">
        <ele>215.95</ele>
        <time>2016-05-05T09:11:06Z</time>
      </trkpt>
      <trkpt lat="44.59447" lon="1.03616">
        <ele>216.43</ele>
        <time>2016-05-05T09:11:07Z</time>
      </trkpt>
      <trkpt lat="44.59456" lon="1.03614">
        <ele>219.32</ele>
        <time>2016-05-05T09:11:13Z</time>
      </trkpt>
      <trkpt lat="44.5947" lon="1.03612">
        <ele>218.84</ele>
        <time>2016-05-05T09:11:21Z</time>
      </trkpt>
      <trkpt lat="44.59484" lon="1.03604">
        <ele>216.91</ele>
        <time>2016-05-05T09:11:31Z</time>
      </trkpt>
      <trkpt lat="44.59508" lon="1.03587">
        <ele>217.4</ele>
        <time>2016-05-05T09:11:49Z</time>
      </trkpt>
      <trkpt lat="44.59534" lon="1.03568">
        <ele>217.88</ele>
        <time>2016-05-05T09:12:08Z</time>
      </trkpt>
      <trkpt lat="44.59547" lon="1.03558">
        <ele>217.88</ele>
        <time>2016-05-05T09:12:18Z</time>
      </trkpt>
      <trkpt lat="44.59568" lon="1.03545">
        <ele>217.88</ele>
        <time>2016-05-05T09:12:36Z</time>
      </trkpt>
      <trkpt lat="44.59569" lon="1.03545">
        <ele>217.88</ele>
        <time>2016-05-05T09:12:58Z</time>
      </trkpt>
      <trkpt lat="44.59568" lon="1.03545">
        <ele>218.36</ele>
        <time>2016-05-05T09:13:23Z</time>
      </trkpt>
      <trkpt lat="44.59569" lon="1.03545">
        <ele>218.36</ele>
        <time>2016-05-05T09:13:57Z</time>
      </trkpt>
      <trkpt lat="44.59568" lon="1.03546">
        <ele>216.91</ele>
        <time>2016-05-05T09:14:25Z</time>
      </trkpt>
      <trkpt lat="44.59569" lon="1.03545">
        <ele>217.4</ele>
        <time>2016-05-05T09:15:04Z</time>
      </trkpt>
      <trkpt lat="44.5957" lon="1.03544">
        <ele>216.91</ele>
        <time>2016-05-05T09:15:19Z</time>
      </trkpt>
      <trkpt lat="44.59571" lon="1.03546">
        <ele>218.36</ele>
        <time>2016-05-05T09:15:39Z</time>
      </trkpt>
      <trkpt lat="44.59578" lon="1.03571">
        <ele>219.8</ele>
        <time>2016-05-05T09:15:51Z</time>
      </trkpt>
      <trkpt lat="44.59589" lon="1.03613">
        <ele>219.8</ele>
        <time>2016-05-05T09:16:05Z</time>
      </trkpt>
      <trkpt lat="44.59598" lon="1.03684">
        <ele>219.32</ele>
        <time>2016-05-05T09:16:21Z</time>
      </trkpt>
      <trkpt lat="44.59602" lon="1.03764">
        <ele>218.36</ele>
        <time>2016-05-05T09:16:37Z</time>
      </trkpt>
      <trkpt lat="44.596" lon="1.03809">
        <ele>217.4</ele>
        <time>2016-05-05T09:16:45Z</time>
      </trkpt>
      <trkpt lat="44.59599" lon="1.0382">
        <ele>217.4</ele>
        <time>2016-05-05T09:16:47Z</time>
      </trkpt>
      <trkpt lat="44.59587" lon="1.03945">
        <ele>215.95</ele>
        <time>2016-05-05T09:17:07Z</time>
      </trkpt>
      <trkpt lat="44.59584" lon="1.04024">
        <ele>214.03</ele>
        <time>2016-05-05T09:17:19Z</time>
      </trkpt>
      <trkpt lat="44.59584" lon="1.04046">
        <ele>213.07</ele>
        <time>2016-05-05T09:17:22Z</time>
      </trkpt>
      <trkpt lat="44.59587" lon="1.04167">
        <ele>210.19</ele>
        <time>2016-05-05T09:17:36Z</time>
      </trkpt>
      <trkpt lat="44.59605" lon="1.04196">
        <ele>208.74</ele>
        <time>2016-05-05T09:17:43Z</time>
      </trkpt>
      <trkpt lat="44.59664" lon="1.04261">
        <ele>208.74</ele>
        <time>2016-05-05T09:18:02Z</time>
      </trkpt>
      <trkpt lat="44.59666" lon="1.04265">
        <ele>208.74</ele>
        <time>2016-05-05T09:18:03Z</time>
      </trkpt>
      <trkpt lat="44.59678" lon="1.04294">
        <ele>207.3</ele>
        <time>2016-05-05T09:18:08Z</time>
      </trkpt>
      <trkpt lat="44.59682" lon="1.04308">
        <ele>206.34</ele>
        <time>2016-05-05T09:18:10Z</time>
      </trkpt>
      <trkpt lat="44.59687" lon="1.04323">
        <ele>204.9</ele>
        <time>2016-05-05T09:18:12Z</time>
      </trkpt>
      <trkpt lat="44.59705" lon="1.04359">
        <ele>203.94</ele>
        <time>2016-05-05T09:18:19Z</time>
      </trkpt>
      <trkpt lat="44.59745" lon="1.044">
        <ele>204.9</ele>
        <time>2016-05-05T09:18:31Z</time>
      </trkpt>
      <trkpt lat="44.59758" lon="1.04379">
        <ele>203.94</ele>
        <time>2016-05-05T09:18:38Z</time>
      </trkpt>
      <trkpt lat="44.598" lon="1.04314">
        <ele>202.98</ele>
        <time>2016-05-05T09:18:54Z</time>
      </trkpt>
      <trkpt lat="44.5981" lon="1.04302">
        <ele>202.98</ele>
        <time>2016-05-05T09:18:57Z</time>
      </trkpt>
      <trkpt lat="44.59824" lon="1.04291">
        <ele>203.94</ele>
        <time>2016-05-05T09:19:01Z</time>
      </trkpt>
      <trkpt lat="44.59825" lon="1.04281">
        <ele>204.42</ele>
        <time>2016-05-05T09:19:05Z</time>
      </trkpt>
      <trkpt lat="44.59826" lon="1.04258">
        <ele>203.94</ele>
        <time>2016-05-05T09:19:10Z</time>
      </trkpt>
      <trkpt lat="44.59842" lon="1.04207">
        <ele>201.05</ele>
        <time>2016-05-05T09:19:18Z</time>
      </trkpt>
      <trkpt lat="44.59845" lon="1.04202">
        <ele>200.57</ele>
        <time>2016-05-05T09:19:19Z</time>
      </trkpt>
      <trkpt lat="44.59897" lon="1.04135">
        <ele>194.32</ele>
        <time>2016-05-05T09:19:30Z</time>
      </trkpt>
      <trkpt lat="44.59961" lon="1.04072">
        <ele>188.08</ele>
        <time>2016-05-05T09:19:40Z</time>
      </trkpt>
      <trkpt lat="44.59972" lon="1.04057">
        <ele>186.15</ele>
        <time>2016-05-05T09:19:42Z</time>
      </trkpt>
      <trkpt lat="44.59982" lon="1.04046">
        <ele>183.27</ele>
        <time>2016-05-05T09:19:44Z</time>
      </trkpt>
      <trkpt lat="44.60004" lon="1.04031">
        <ele>178.46</ele>
        <time>2016-05-05T09:19:48Z</time>
      </trkpt>
      <trkpt lat="44.60036" lon="1.04012">
        <ele>173.66</ele>
        <time>2016-05-05T09:19:53Z</time>
      </trkpt>
      <trkpt lat="44.60054" lon="1.03997">
        <ele>170.77</ele>
        <time>2016-05-05T09:19:56Z</time>
      </trkpt>
      <trkpt lat="44.6009" lon="1.03986">
        <ele>165</ele>
        <time>2016-05-05T09:20:04Z</time>
      </trkpt>
      <trkpt lat="44.60096" lon="1.03987">
        <ele>164.04</ele>
        <time>2016-05-05T09:20:06Z</time>
      </trkpt>
      <trkpt lat="44.60173" lon="1.0397">
        <ele>156.35</ele>
        <time>2016-05-05T09:20:21Z</time>
      </trkpt>
      <trkpt lat="44.60218" lon="1.03954">
        <ele>153.47</ele>
        <time>2016-05-05T09:20:29Z</time>
      </trkpt>
      <trkpt lat="44.60305" lon="1.03909">
        <ele>148.18</ele>
        <time>2016-05-05T09:20:43Z</time>
      </trkpt>
      <trkpt lat="44.60318" lon="1.03905">
        <ele>147.7</ele>
        <time>2016-05-05T09:20:48Z</time>
      </trkpt>
      <trkpt lat="44.60384" lon="1.03882">
        <ele>140.97</ele>
        <time>2016-05-05T09:21:00Z</time>
      </trkpt>
      <trkpt lat="44.60408" lon="1.03889">
        <ele>139.05</ele>
        <time>2016-05-05T09:21:08Z</time>
      </trkpt>
      <trkpt lat="44.60439" lon="1.03893">
        <ele>138.09</ele>
        <time>2016-05-05T09:21:20Z</time>
      </trkpt>
      <trkpt lat="44.60466" lon="1.03896">
        <ele>136.16</ele>
        <time>2016-05-05T09:21:32Z</time>
      </trkpt>
      <trkpt lat="44.60467" lon="1.03898">
        <ele>136.64</ele>
        <time>2016-05-05T09:21:46Z</time>
      </trkpt>
      <trkpt lat="44.60472" lon="1.03897">
        <ele>139.53</ele>
        <time>2016-05-05T09:22:12Z</time>
      </trkpt>
      <trkpt lat="44.60487" lon="1.03909">
        <ele>141.45</ele>
        <time>2016-05-05T09:22:22Z</time>
      </trkpt>
      <trkpt lat="44.60526" lon="1.03913">
        <ele>143.37</ele>
        <time>2016-05-05T09:22:34Z</time>
      </trkpt>
      <trkpt lat="44.60557" lon="1.0391">
        <ele>143.37</ele>
        <time>2016-05-05T09:22:41Z</time>
      </trkpt>
      <trkpt lat="44.60598" lon="1.03905">
        <ele>143.37</ele>
        <time>2016-05-05T09:22:53Z</time>
      </trkpt>
      <trkpt lat="44.6064" lon="1.03883">
        <ele>141.45</ele>
        <time>2016-05-05T09:23:07Z</time>
      </trkpt>
      <trkpt lat="44.60678" lon="1.03846">
        <ele>141.45</ele>
        <time>2016-05-05T09:23:20Z</time>
      </trkpt>
      <trkpt lat="44.60707" lon="1.03801">
        <ele>139.53</ele>
        <time>2016-05-05T09:23:32Z</time>
      </trkpt>
      <trkpt lat="44.60721" lon="1.0377">
        <ele>140.97</ele>
        <time>2016-05-05T09:23:43Z</time>
      </trkpt>
      <trkpt lat="44.60746" lon="1.03743">
        <ele>143.37</ele>
        <time>2016-05-05T09:23:58Z</time>
      </trkpt>
      <trkpt lat="44.60768" lon="1.03731">
        <ele>145.3</ele>
        <time>2016-05-05T09:24:10Z</time>
      </trkpt>
      <trkpt lat="44.60795" lon="1.0372">
        <ele>151.54</ele>
        <time>2016-05-05T09:24:26Z</time>
      </trkpt>
      <trkpt lat="44.60818" lon="1.03704">
        <ele>153.95</ele>
        <time>2016-05-05T09:24:40Z</time>
      </trkpt>
      <trkpt lat="44.60825" lon="1.03694">
        <ele>154.91</ele>
        <time>2016-05-05T09:24:46Z</time>
      </trkpt>
      <trkpt lat="44.6083" lon="1.03685">
        <ele>155.39</ele>
        <time>2016-05-05T09:24:52Z</time>
      </trkpt>
      <trkpt lat="44.60832" lon="1.03681">
        <ele>155.39</ele>
        <time>2016-05-05T09:24:55Z</time>
      </trkpt>
      <trkpt lat="44.6084" lon="1.03672">
        <ele>153.95</ele>
        <time>2016-05-05T09:25:10Z</time>
      </trkpt>
      <trkpt lat="44.6084" lon="1.03671">
        <ele>153.95</ele>
        <time>2016-05-05T09:25:31Z</time>
      </trkpt>
      <trkpt lat="44.6084" lon="1.03672">
        <ele>154.43</ele>
        <time>2016-05-05T09:25:38Z</time>
      </trkpt>
      <trkpt lat="44.60845" lon="1.03635">
        <ele>154.43</ele>
        <time>2016-05-05T09:25:50Z</time>
      </trkpt>
      <trkpt lat="44.60837" lon="1.0357">
        <ele>153.95</ele>
        <time>2016-05-05T09:26:06Z</time>
      </trkpt>
      <trkpt lat="44.60825" lon="1.03523">
        <ele>150.1</ele>
        <time>2016-05-05T09:26:16Z</time>
      </trkpt>
      <trkpt lat="44.60823" lon="1.0351">
        <ele>149.14</ele>
        <time>2016-05-05T09:26:18Z</time>
      </trkpt>
      <trkpt lat="44.60808" lon="1.03475">
        <ele>146.74</ele>
        <time>2016-05-05T09:26:23Z</time>
      </trkpt>
      <trkpt lat="44.60753" lon="1.03386">
        <ele>136.16</ele>
        <time>2016-05-05T09:26:36Z</time>
      </trkpt>
      <trkpt lat="44.60749" lon="1.03372">
        <ele>135.2</ele>
        <time>2016-05-05T09:26:45Z</time>
      </trkpt>
      <trkpt lat="44.60748" lon="1.0337">
        <ele>135.68</ele>
        <time>2016-05-05T09:26:58Z</time>
      </trkpt>
      <trkpt lat="44.60733" lon="1.03373">
        <ele>134.72</ele>
        <time>2016-05-05T09:27:03Z</time>
      </trkpt>
      <trkpt lat="44.60685" lon="1.03404">
        <ele>134.72</ele>
        <time>2016-05-05T09:27:16Z</time>
      </trkpt>
      <trkpt lat="44.6066" lon="1.03396">
        <ele>133.76</ele>
        <time>2016-05-05T09:27:22Z</time>
      </trkpt>
      <trkpt lat="44.60645" lon="1.03392">
        <ele>133.28</ele>
        <time>2016-05-05T09:27:25Z</time>
      </trkpt>
      <trkpt lat="44.60619" lon="1.03366">
        <ele>134.24</ele>
        <time>2016-05-05T09:27:35Z</time>
      </trkpt>
      <trkpt lat="44.60618" lon="1.03364">
        <ele>134.72</ele>
        <time>2016-05-05T09:27:49Z</time>
      </trkpt>
      <trkpt lat="44.60618" lon="1.03364">
        <ele>138.57</ele>
        <time>2016-05-05T09:28:26Z</time>
      </trkpt>
      <trkpt lat="44.60618" lon="1.03362">
        <ele>138.57</ele>
        <time>2016-05-05T09:28:41Z</time>
      </trkpt>
      <trkpt lat="44.60625" lon="1.03355">
        <ele>138.57</ele>
        <time>2016-05-05T09:28:56Z</time>
      </trkpt>
      <trkpt lat="44.60623" lon="1.03351">
        <ele>138.57</ele>
        <time>2016-05-05T09:29:26Z</time>
      </trkpt>
      <trkpt lat="44.60623" lon="1.03349">
        <ele>137.61</ele>
        <time>2016-05-05T09:29:48Z</time>
      </trkpt>
      <trkpt lat="44.60626" lon="1.03318">
        <ele>139.53</ele>
        <time>2016-05-05T09:30:03Z</time>
      </trkpt>
      <trkpt lat="44.60619" lon="1.03271">
        <ele>142.41</ele>
        <time>2016-05-05T09:30:22Z</time>
      </trkpt>
      <trkpt lat="44.60624" lon="1.03228">
        <ele>143.85</ele>
        <time>2016-05-05T09:30:38Z</time>
      </trkpt>
      <trkpt lat="44.60632" lon="1.03214">
        <ele>146.26</ele>
        <time>2016-05-05T09:30:47Z</time>
      </trkpt>
      <trkpt lat="44.60648" lon="1.03197">
        <ele>148.18</ele>
        <time>2016-05-05T09:31:00Z</time>
      </trkpt>
      <trkpt lat="44.60667" lon="1.03186">
        <ele>150.1</ele>
        <time>2016-05-05T09:31:14Z</time>
      </trkpt>
      <trkpt lat="44.60691" lon="1.03168">
        <ele>154.43</ele>
        <time>2016-05-05T09:31:29Z</time>
      </trkpt>
      <trkpt lat="44.60719" lon="1.03151">
        <ele>157.79</ele>
        <time>2016-05-05T09:31:45Z</time>
      </trkpt>
      <trkpt lat="44.6074" lon="1.03143">
        <ele>161.64</ele>
        <time>2016-05-05T09:31:58Z</time>
      </trkpt>
      <trkpt lat="44.60769" lon="1.0313">
        <ele>163.08</ele>
        <time>2016-05-05T09:32:14Z</time>
      </trkpt>
      <trkpt lat="44.60798" lon="1.03117">
        <ele>165.96</ele>
        <time>2016-05-05T09:32:30Z</time>
      </trkpt>
      <trkpt lat="44.60825" lon="1.03114">
        <ele>168.85</ele>
        <time>2016-05-05T09:32:45Z</time>
      </trkpt>
      <trkpt lat="44.60846" lon="1.03118">
        <ele>173.17</ele>
        <time>2016-05-05T09:32:57Z</time>
      </trkpt>
      <trkpt lat="44.60867" lon="1.03126">
        <ele>176.54</ele>
        <time>2016-05-05T09:33:09Z</time>
      </trkpt>
      <trkpt lat="44.60895" lon="1.03116">
        <ele>177.98</ele>
        <time>2016-05-05T09:33:23Z</time>
      </trkpt>
      <trkpt lat="44.60902" lon="1.03091">
        <ele>177.98</ele>
        <time>2016-05-05T09:33:36Z</time>
      </trkpt>
      <trkpt lat="44.60905" lon="1.03056">
        <ele>176.06</ele>
        <time>2016-05-05T09:33:52Z</time>
      </trkpt>
      <trkpt lat="44.6091" lon="1.03022">
        <ele>178.46</ele>
        <time>2016-05-05T09:34:07Z</time>
      </trkpt>
      <trkpt lat="44.6092" lon="1.02984">
        <ele>179.42</ele>
        <time>2016-05-05T09:34:24Z</time>
      </trkpt>
      <trkpt lat="44.60932" lon="1.02948">
        <ele>183.27</ele>
        <time>2016-05-05T09:34:42Z</time>
      </trkpt>
      <trkpt lat="44.60942" lon="1.02908">
        <ele>186.15</ele>
        <time>2016-05-05T09:35:00Z</time>
      </trkpt>
      <trkpt lat="44.6095" lon="1.02873">
        <ele>190</ele>
        <time>2016-05-05T09:35:17Z</time>
      </trkpt>
      <trkpt lat="44.60959" lon="1.0284">
        <ele>193.36</ele>
        <time>2016-05-05T09:35:32Z</time>
      </trkpt>
      <trkpt lat="44.60971" lon="1.02807">
        <ele>196.25</ele>
        <time>2016-05-05T09:35:48Z</time>
      </trkpt>
      <trkpt lat="44.60987" lon="1.02769">
        <ele>198.65</ele>
        <time>2016-05-05T09:36:07Z</time>
      </trkpt>
      <trkpt lat="44.61002" lon="1.02734">
        <ele>201.53</ele>
        <time>2016-05-05T09:36:24Z</time>
      </trkpt>
      <trkpt lat="44.61019" lon="1.02702">
        <ele>204.42</ele>
        <time>2016-05-05T09:36:41Z</time>
      </trkpt>
      <trkpt lat="44.61036" lon="1.0267">
        <ele>207.3</ele>
        <time>2016-05-05T09:36:58Z</time>
      </trkpt>
      <trkpt lat="44.61054" lon="1.02629">
        <ele>211.63</ele>
        <time>2016-05-05T09:37:19Z</time>
      </trkpt>
      <trkpt lat="44.61072" lon="1.02594">
        <ele>214.51</ele>
        <time>2016-05-05T09:37:37Z</time>
      </trkpt>
      <trkpt lat="44.61095" lon="1.02563">
        <ele>217.88</ele>
        <time>2016-05-05T09:37:56Z</time>
      </trkpt>
      <trkpt lat="44.61121" lon="1.02545">
        <ele>221.24</ele>
        <time>2016-05-05T09:38:13Z</time>
      </trkpt>
      <trkpt lat="44.61143" lon="1.02537">
        <ele>225.09</ele>
        <time>2016-05-05T09:38:27Z</time>
      </trkpt>
      <trkpt lat="44.61172" lon="1.02529">
        <ele>226.53</ele>
        <time>2016-05-05T09:38:44Z</time>
      </trkpt>
      <trkpt lat="44.61196" lon="1.02523">
        <ele>227.49</ele>
        <time>2016-05-05T09:38:58Z</time>
      </trkpt>
      <trkpt lat="44.61199" lon="1.02522">
        <ele>227.49</ele>
        <time>2016-05-05T09:39:00Z</time>
      </trkpt>
      <trkpt lat="44.61219" lon="1.02496">
        <ele>229.89</ele>
        <time>2016-05-05T09:39:16Z</time>
      </trkpt>
      <trkpt lat="44.61225" lon="1.02457">
        <ele>232.3</ele>
        <time>2016-05-05T09:39:33Z</time>
      </trkpt>
      <trkpt lat="44.61229" lon="1.02422">
        <ele>234.22</ele>
        <time>2016-05-05T09:39:48Z</time>
      </trkpt>
      <trkpt lat="44.61241" lon="1.02389">
        <ele>235.66</ele>
        <time>2016-05-05T09:40:04Z</time>
      </trkpt>
      <trkpt lat="44.61264" lon="1.02361">
        <ele>239.02</ele>
        <time>2016-05-05T09:40:22Z</time>
      </trkpt>
      <trkpt lat="44.61272" lon="1.02344">
        <ele>239.51</ele>
        <time>2016-05-05T09:40:31Z</time>
      </trkpt>
      <trkpt lat="44.61274" lon="1.02335">
        <ele>239.02</ele>
        <time>2016-05-05T09:40:36Z</time>
      </trkpt>
      <trkpt lat="44.61275" lon="1.0233">
        <ele>236.14</ele>
        <time>2016-05-05T09:40:48Z</time>
      </trkpt>
      <trkpt lat="44.61275" lon="1.0233">
        <ele>235.66</ele>
        <time>2016-05-05T09:41:14Z</time>
      </trkpt>
      <trkpt lat="44.61277" lon="1.0233">
        <ele>235.18</ele>
        <time>2016-05-05T09:41:40Z</time>
      </trkpt>
      <trkpt lat="44.61277" lon="1.02333">
        <ele>239.51</ele>
        <time>2016-05-05T09:42:09Z</time>
      </trkpt>
      <trkpt lat="44.61275" lon="1.02333">
        <ele>239.99</ele>
        <time>2016-05-05T09:42:32Z</time>
      </trkpt>
      <trkpt lat="44.61277" lon="1.02332">
        <ele>238.06</ele>
        <time>2016-05-05T09:43:00Z</time>
      </trkpt>
      <trkpt lat="44.61278" lon="1.02335">
        <ele>238.54</ele>
        <time>2016-05-05T09:43:12Z</time>
      </trkpt>
      <trkpt lat="44.61278" lon="1.02337">
        <ele>239.02</ele>
        <time>2016-05-05T09:43:34Z</time>
      </trkpt>
      <trkpt lat="44.6128" lon="1.02338">
        <ele>239.51</ele>
        <time>2016-05-05T09:43:50Z</time>
      </trkpt>
      <trkpt lat="44.61283" lon="1.02337">
        <ele>240.47</ele>
        <time>2016-05-05T09:44:00Z</time>
      </trkpt>
      <trkpt lat="44.61288" lon="1.02338">
        <ele>240.47</ele>
        <time>2016-05-05T09:44:04Z</time>
      </trkpt>
      <trkpt lat="44.61293" lon="1.02333">
        <ele>240.95</ele>
        <time>2016-05-05T09:44:08Z</time>
      </trkpt>
      <trkpt lat="44.61306" lon="1.0231">
        <ele>242.39</ele>
        <time>2016-05-05T09:44:19Z</time>
      </trkpt>
      <trkpt lat="44.61323" lon="1.02279">
        <ele>244.79</ele>
        <time>2016-05-05T09:44:35Z</time>
      </trkpt>
      <trkpt lat="44.61349" lon="1.02274">
        <ele>249.12</ele>
        <time>2016-05-05T09:44:51Z</time>
      </trkpt>
      <trkpt lat="44.61374" lon="1.02256">
        <ele>250.56</ele>
        <time>2016-05-05T09:45:08Z</time>
      </trkpt>
      <trkpt lat="44.61377" lon="1.02245">
        <ele>251.04</ele>
        <time>2016-05-05T09:45:13Z</time>
      </trkpt>
      <trkpt lat="44.61389" lon="1.02205">
        <ele>250.56</ele>
        <time>2016-05-05T09:45:28Z</time>
      </trkpt>
      <trkpt lat="44.61401" lon="1.02156">
        <ele>251.52</ele>
        <time>2016-05-05T09:45:44Z</time>
      </trkpt>
      <trkpt lat="44.61419" lon="1.02082">
        <ele>248.64</ele>
        <time>2016-05-05T09:45:58Z</time>
      </trkpt>
      <trkpt lat="44.61441" lon="1.01993">
        <ele>249.6</ele>
        <time>2016-05-05T09:46:15Z</time>
      </trkpt>
      <trkpt lat="44.6147" lon="1.0192">
        <ele>250.56</ele>
        <time>2016-05-05T09:46:31Z</time>
      </trkpt>
      <trkpt lat="44.61507" lon="1.01851">
        <ele>252.48</ele>
        <time>2016-05-05T09:46:48Z</time>
      </trkpt>
      <trkpt lat="44.61544" lon="1.01804">
        <ele>256.33</ele>
        <time>2016-05-05T09:47:03Z</time>
      </trkpt>
      <trkpt lat="44.61592" lon="1.01771">
        <ele>259.21</ele>
        <time>2016-05-05T09:47:19Z</time>
      </trkpt>
      <trkpt lat="44.61644" lon="1.01723">
        <ele>256.33</ele>
        <time>2016-05-05T09:47:33Z</time>
      </trkpt>
      <trkpt lat="44.61668" lon="1.01692">
        <ele>256.81</ele>
        <time>2016-05-05T09:47:44Z</time>
      </trkpt>
      <trkpt lat="44.61701" lon="1.01663">
        <ele>257.77</ele>
        <time>2016-05-05T09:47:58Z</time>
      </trkpt>
      <trkpt lat="44.61736" lon="1.01635">
        <ele>262.58</ele>
        <time>2016-05-05T09:48:11Z</time>
      </trkpt>
      <trkpt lat="44.61774" lon="1.01601">
        <ele>269.79</ele>
        <time>2016-05-05T09:48:23Z</time>
      </trkpt>
      <trkpt lat="44.61818" lon="1.01561">
        <ele>273.15</ele>
        <time>2016-05-05T09:48:35Z</time>
      </trkpt>
      <trkpt lat="44.61828" lon="1.01551">
        <ele>273.63</ele>
        <time>2016-05-05T09:48:38Z</time>
      </trkpt>
      <trkpt lat="44.6188" lon="1.01493">
        <ele>269.79</ele>
        <time>2016-05-05T09:48:51Z</time>
      </trkpt>
      <trkpt lat="44.61887" lon="1.01479">
        <ele>268.83</ele>
        <time>2016-05-05T09:48:55Z</time>
      </trkpt>
      <trkpt lat="44.61877" lon="1.01459">
        <ele>266.9</ele>
        <time>2016-05-05T09:49:01Z</time>
      </trkpt>
      <trkpt lat="44.61836" lon="1.01419">
        <ele>266.9</ele>
        <time>2016-05-05T09:49:17Z</time>
      </trkpt>
      <trkpt lat="44.61795" lon="1.0138">
        <ele>264.02</ele>
        <time>2016-05-05T09:49:30Z</time>
      </trkpt>
      <trkpt lat="44.61775" lon="1.01364">
        <ele>262.58</ele>
        <time>2016-05-05T09:49:34Z</time>
      </trkpt>
      <trkpt lat="44.61704" lon="1.01319">
        <ele>260.65</ele>
        <time>2016-05-05T09:49:50Z</time>
      </trkpt>
      <trkpt lat="44.61631" lon="1.01263">
        <ele>258.25</ele>
        <time>2016-05-05T09:50:09Z</time>
      </trkpt>
      <trkpt lat="44.61616" lon="1.01253">
        <ele>258.73</ele>
        <time>2016-05-05T09:50:13Z</time>
      </trkpt>
      <trkpt lat="44.61574" lon="1.01226">
        <ele>260.17</ele>
        <time>2016-05-05T09:50:26Z</time>
      </trkpt>
      <trkpt lat="44.6157" lon="1.01222">
        <ele>261.14</ele>
        <time>2016-05-05T09:50:28Z</time>
      </trkpt>
      <trkpt lat="44.61538" lon="1.01199">
        <ele>262.58</ele>
        <time>2016-05-05T09:50:42Z</time>
      </trkpt>
      <trkpt lat="44.61505" lon="1.01182">
        <ele>261.14</ele>
        <time>2016-05-05T09:50:55Z</time>
      </trkpt>
      <trkpt lat="44.61473" lon="1.0116">
        <ele>255.85</ele>
        <time>2016-05-05T09:51:07Z</time>
      </trkpt>
      <trkpt lat="44.61462" lon="1.01157">
        <ele>253.93</ele>
        <time>2016-05-05T09:51:11Z</time>
      </trkpt>
      <trkpt lat="44.6144" lon="1.01152">
        <ele>252.96</ele>
        <time>2016-05-05T09:51:18Z</time>
      </trkpt>
      <trkpt lat="44.61403" lon="1.01139">
        <ele>253.44</ele>
        <time>2016-05-05T09:51:26Z</time>
      </trkpt>
      <trkpt lat="44.61396" lon="1.01133">
        <ele>253.44</ele>
        <time>2016-05-05T09:51:28Z</time>
      </trkpt>
      <trkpt lat="44.61361" lon="1.0112">
        <ele>253.44</ele>
        <time>2016-05-05T09:51:36Z</time>
      </trkpt>
      <trkpt lat="44.61329" lon="1.01102">
        <ele>254.41</ele>
        <time>2016-05-05T09:51:43Z</time>
      </trkpt>
      <trkpt lat="44.61284" lon="1.0108">
        <ele>258.73</ele>
        <time>2016-05-05T09:51:53Z</time>
      </trkpt>
      <trkpt lat="44.61266" lon="1.01071">
        <ele>260.17</ele>
        <time>2016-05-05T09:51:57Z</time>
      </trkpt>
      <trkpt lat="44.61237" lon="1.01075">
        <ele>262.1</ele>
        <time>2016-05-05T09:52:03Z</time>
      </trkpt>
      <trkpt lat="44.61199" lon="1.01074">
        <ele>263.54</ele>
        <time>2016-05-05T09:52:16Z</time>
      </trkpt>
      <trkpt lat="44.61189" lon="1.01074">
        <ele>262.1</ele>
        <time>2016-05-05T09:52:27Z</time>
      </trkpt>
      <trkpt lat="44.61184" lon="1.01072">
        <ele>261.62</ele>
        <time>2016-05-05T09:52:32Z</time>
      </trkpt>
      <trkpt lat="44.61177" lon="1.01056">
        <ele>260.17</ele>
        <time>2016-05-05T09:52:42Z</time>
      </trkpt>
      <trkpt lat="44.61181" lon="1.01031">
        <ele>260.17</ele>
        <time>2016-05-05T09:52:48Z</time>
      </trkpt>
      <trkpt lat="44.61173" lon="1.00979">
        <ele>259.21</ele>
        <time>2016-05-05T09:52:59Z</time>
      </trkpt>
      <trkpt lat="44.61155" lon="1.00951">
        <ele>259.21</ele>
        <time>2016-05-05T09:53:06Z</time>
      </trkpt>
      <trkpt lat="44.61122" lon="1.0094">
        <ele>261.62</ele>
        <time>2016-05-05T09:53:17Z</time>
      </trkpt>
      <trkpt lat="44.61099" lon="1.00938">
        <ele>265.46</ele>
        <time>2016-05-05T09:53:24Z</time>
      </trkpt>
      <trkpt lat="44.6107" lon="1.00942">
        <ele>269.31</ele>
        <time>2016-05-05T09:53:34Z</time>
      </trkpt>
      <trkpt lat="44.61029" lon="1.00941">
        <ele>271.71</ele>
        <time>2016-05-05T09:53:46Z</time>
      </trkpt>
      <trkpt lat="44.61011" lon="1.00941">
        <ele>270.75</ele>
        <time>2016-05-05T09:53:50Z</time>
      </trkpt>
      <trkpt lat="44.60965" lon="1.00933">
        <ele>264.5</ele>
        <time>2016-05-05T09:53:57Z</time>
      </trkpt>
      <trkpt lat="44.60956" lon="1.00918">
        <ele>254.89</ele>
        <time>2016-05-05T09:54:02Z</time>
      </trkpt>
      <trkpt lat="44.60959" lon="1.00874">
        <ele>250.08</ele>
        <time>2016-05-05T09:54:14Z</time>
      </trkpt>
      <trkpt lat="44.60953" lon="1.00817">
        <ele>250.08</ele>
        <time>2016-05-05T09:54:28Z</time>
      </trkpt>
      <trkpt lat="44.60959" lon="1.00742">
        <ele>252</ele>
        <time>2016-05-05T09:54:43Z</time>
      </trkpt>
      <trkpt lat="44.60958" lon="1.00727">
        <ele>252.48</ele>
        <time>2016-05-05T09:54:46Z</time>
      </trkpt>
      <trkpt lat="44.60956" lon="1.00705">
        <ele>251.52</ele>
        <time>2016-05-05T09:54:50Z</time>
      </trkpt>
      <trkpt lat="44.60952" lon="1.0068">
        <ele>250.56</ele>
        <time>2016-05-05T09:54:54Z</time>
      </trkpt>
      <trkpt lat="44.60938" lon="1.00646">
        <ele>250.08</ele>
        <time>2016-05-05T09:54:59Z</time>
      </trkpt>
      <trkpt lat="44.60926" lon="1.00629">
        <ele>250.08</ele>
        <time>2016-05-05T09:55:02Z</time>
      </trkpt>
      <trkpt lat="44.60865" lon="1.00546">
        <ele>251.04</ele>
        <time>2016-05-05T09:55:18Z</time>
      </trkpt>
      <trkpt lat="44.60858" lon="1.00537">
        <ele>250.56</ele>
        <time>2016-05-05T09:55:20Z</time>
      </trkpt>
      <trkpt lat="44.60808" lon="1.00472">
        <ele>248.64</ele>
        <time>2016-05-05T09:55:33Z</time>
      </trkpt>
      <trkpt lat="44.608" lon="1.00462">
        <ele>248.64</ele>
        <time>2016-05-05T09:55:35Z</time>
      </trkpt>
      <trkpt lat="44.60782" lon="1.00438">
        <ele>249.12</ele>
        <time>2016-05-05T09:55:40Z</time>
      </trkpt>
      <trkpt lat="44.60757" lon="1.00394">
        <ele>250.08</ele>
        <time>2016-05-05T09:55:47Z</time>
      </trkpt>
      <trkpt lat="44.60743" lon="1.00369">
        <ele>251.52</ele>
        <time>2016-05-05T09:55:51Z</time>
      </trkpt>
      <trkpt lat="44.60734" lon="1.00352">
        <ele>252.96</ele>
        <time>2016-05-05T09:55:54Z</time>
      </trkpt>
      <trkpt lat="44.60693" lon="1.00296">
        <ele>255.85</ele>
        <time>2016-05-05T09:56:07Z</time>
      </trkpt>
      <trkpt lat="44.6068" lon="1.00272">
        <ele>254.41</ele>
        <time>2016-05-05T09:56:12Z</time>
      </trkpt>
      <trkpt lat="44.60625" lon="1.00198">
        <ele>251.04</ele>
        <time>2016-05-05T09:56:27Z</time>
      </trkpt>
      <trkpt lat="44.606" lon="1.00169">
        <ele>249.12</ele>
        <time>2016-05-05T09:56:32Z</time>
      </trkpt>
      <trkpt lat="44.60567" lon="1.00138">
        <ele>245.75</ele>
        <time>2016-05-05T09:56:37Z</time>
      </trkpt>
      <trkpt lat="44.60509" lon="1.00004">
        <ele>236.62</ele>
        <time>2016-05-05T09:56:49Z</time>
      </trkpt>
      <trkpt lat="44.60499" lon="0.99946">
        <ele>235.18</ele>
        <time>2016-05-05T09:56:54Z</time>
      </trkpt>
      <trkpt lat="44.60467" lon="0.99813">
        <ele>228.93</ele>
        <time>2016-05-05T09:57:06Z</time>
      </trkpt>
      <trkpt lat="44.6045" lon="0.99755">
        <ele>225.09</ele>
        <time>2016-05-05T09:57:12Z</time>
      </trkpt>
      <trkpt lat="44.60441" lon="0.99733">
        <ele>223.64</ele>
        <time>2016-05-05T09:57:16Z</time>
      </trkpt>
      <trkpt lat="44.60425" lon="0.99693">
        <ele>224.12</ele>
        <time>2016-05-05T09:57:28Z</time>
      </trkpt>
      <trkpt lat="44.60399" lon="0.99637">
        <ele>226.05</ele>
        <time>2016-05-05T09:57:41Z</time>
      </trkpt>
      <trkpt lat="44.60397" lon="0.99633">
        <ele>226.05</ele>
        <time>2016-05-05T09:57:42Z</time>
      </trkpt>
      <trkpt lat="44.60382" lon="0.99599">
        <ele>224.12</ele>
        <time>2016-05-05T09:57:48Z</time>
      </trkpt>
      <trkpt lat="44.60373" lon="0.99578">
        <ele>222.2</ele>
        <time>2016-05-05T09:57:51Z</time>
      </trkpt>
      <trkpt lat="44.60358" lon="0.99552">
        <ele>220.76</ele>
        <time>2016-05-05T09:57:55Z</time>
      </trkpt>
      <trkpt lat="44.60339" lon="0.99478">
        <ele>222.2</ele>
        <time>2016-05-05T09:58:04Z</time>
      </trkpt>
      <trkpt lat="44.60326" lon="0.99451">
        <ele>222.68</ele>
        <time>2016-05-05T09:58:07Z</time>
      </trkpt>
      <trkpt lat="44.60305" lon="0.99419">
        <ele>222.2</ele>
        <time>2016-05-05T09:58:11Z</time>
      </trkpt>
      <trkpt lat="44.60289" lon="0.99381">
        <ele>221.24</ele>
        <time>2016-05-05T09:58:16Z</time>
      </trkpt>
      <trkpt lat="44.60268" lon="0.99303">
        <ele>221.24</ele>
        <time>2016-05-05T09:58:29Z</time>
      </trkpt>
      <trkpt lat="44.60255" lon="0.99248">
        <ele>222.68</ele>
        <time>2016-05-05T09:58:40Z</time>
      </trkpt>
      <trkpt lat="44.60242" lon="0.99197">
        <ele>226.05</ele>
        <time>2016-05-05T09:58:51Z</time>
      </trkpt>
      <trkpt lat="44.60211" lon="0.99166">
        <ele>228.93</ele>
        <time>2016-05-05T09:59:01Z</time>
      </trkpt>
      <trkpt lat="44.60171" lon="0.99129">
        <ele>228.93</ele>
        <time>2016-05-05T09:59:13Z</time>
      </trkpt>
      <trkpt lat="44.60134" lon="0.99099">
        <ele>228.45</ele>
        <time>2016-05-05T09:59:24Z</time>
      </trkpt>
      <trkpt lat="44.60102" lon="0.99083">
        <ele>227.01</ele>
        <time>2016-05-05T09:59:34Z</time>
      </trkpt>
      <trkpt lat="44.60059" lon="0.99057">
        <ele>225.57</ele>
        <time>2016-05-05T09:59:46Z</time>
      </trkpt>
      <trkpt lat="44.60001" lon="0.9904">
        <ele>225.57</ele>
        <time>2016-05-05T09:59:59Z</time>
      </trkpt>
      <trkpt lat="44.59988" lon="0.99036">
        <ele>225.57</ele>
        <time>2016-05-05T10:00:02Z</time>
      </trkpt>
      <trkpt lat="44.59955" lon="0.9901">
        <ele>226.53</ele>
        <time>2016-05-05T10:00:12Z</time>
      </trkpt>
      <trkpt lat="44.59933" lon="0.9899">
        <ele>229.41</ele>
        <time>2016-05-05T10:00:23Z</time>
      </trkpt>
      <trkpt lat="44.59929" lon="0.98984">
        <ele>232.3</ele>
        <time>2016-05-05T10:00:28Z</time>
      </trkpt>
      <trkpt lat="44.59903" lon="0.98961">
        <ele>235.18</ele>
        <time>2016-05-05T10:00:40Z</time>
      </trkpt>
      <trkpt lat="44.59886" lon="0.98938">
        <ele>238.54</ele>
        <time>2016-05-05T10:00:50Z</time>
      </trkpt>
      <trkpt lat="44.59869" lon="0.98925">
        <ele>240.95</ele>
        <time>2016-05-05T10:00:59Z</time>
      </trkpt>
      <trkpt lat="44.59842" lon="0.98915">
        <ele>244.31</ele>
        <time>2016-05-05T10:01:10Z</time>
      </trkpt>
      <trkpt lat="44.59803" lon="0.98918">
        <ele>244.31</ele>
        <time>2016-05-05T10:01:23Z</time>
      </trkpt>
      <trkpt lat="44.59771" lon="0.98911">
        <ele>243.83</ele>
        <time>2016-05-05T10:01:33Z</time>
      </trkpt>
      <trkpt lat="44.59744" lon="0.98903">
        <ele>245.27</ele>
        <time>2016-05-05T10:01:43Z</time>
      </trkpt>
      <trkpt lat="44.5973" lon="0.98893">
        <ele>246.23</ele>
        <time>2016-05-05T10:01:50Z</time>
      </trkpt>
      <trkpt lat="44.59718" lon="0.98865">
        <ele>248.16</ele>
        <time>2016-05-05T10:02:00Z</time>
      </trkpt>
      <trkpt lat="44.59717" lon="0.9886">
        <ele>248.64</ele>
        <time>2016-05-05T10:02:01Z</time>
      </trkpt>
      <trkpt lat="44.59697" lon="0.9879">
        <ele>246.23</ele>
        <time>2016-05-05T10:02:15Z</time>
      </trkpt>
      <trkpt lat="44.59694" lon="0.98781">
        <ele>245.27</ele>
        <time>2016-05-05T10:02:17Z</time>
      </trkpt>
      <trkpt lat="44.59674" lon="0.98783">
        <ele>244.79</ele>
        <time>2016-05-05T10:02:25Z</time>
      </trkpt>
      <trkpt lat="44.59663" lon="0.98792">
        <ele>244.31</ele>
        <time>2016-05-05T10:02:31Z</time>
      </trkpt>
      <trkpt lat="44.59623" lon="0.98804">
        <ele>248.16</ele>
        <time>2016-05-05T10:02:47Z</time>
      </trkpt>
      <trkpt lat="44.59583" lon="0.98791">
        <ele>248.16</ele>
        <time>2016-05-05T10:03:01Z</time>
      </trkpt>
      <trkpt lat="44.59542" lon="0.98798">
        <ele>247.68</ele>
        <time>2016-05-05T10:03:13Z</time>
      </trkpt>
      <trkpt lat="44.59521" lon="0.98762">
        <ele>243.35</ele>
        <time>2016-05-05T10:03:22Z</time>
      </trkpt>
      <trkpt lat="44.59511" lon="0.98748">
        <ele>241.43</ele>
        <time>2016-05-05T10:03:25Z</time>
      </trkpt>
      <trkpt lat="44.59504" lon="0.98739">
        <ele>240.47</ele>
        <time>2016-05-05T10:03:27Z</time>
      </trkpt>
      <trkpt lat="44.59487" lon="0.98722">
        <ele>238.54</ele>
        <time>2016-05-05T10:03:31Z</time>
      </trkpt>
      <trkpt lat="44.59447" lon="0.98725">
        <ele>235.18</ele>
        <time>2016-05-05T10:03:39Z</time>
      </trkpt>
      <trkpt lat="44.59442" lon="0.98721">
        <ele>235.18</ele>
        <time>2016-05-05T10:03:40Z</time>
      </trkpt>
      <trkpt lat="44.59395" lon="0.98683">
        <ele>232.78</ele>
        <time>2016-05-05T10:03:52Z</time>
      </trkpt>
      <trkpt lat="44.59363" lon="0.98633">
        <ele>232.3</ele>
        <time>2016-05-05T10:04:06Z</time>
      </trkpt>
      <trkpt lat="44.59352" lon="0.98599">
        <ele>231.33</ele>
        <time>2016-05-05T10:04:13Z</time>
      </trkpt>
      <trkpt lat="44.59331" lon="0.98524">
        <ele>230.37</ele>
        <time>2016-05-05T10:04:27Z</time>
      </trkpt>
      <trkpt lat="44.59313" lon="0.98459">
        <ele>230.85</ele>
        <time>2016-05-05T10:04:40Z</time>
      </trkpt>
      <trkpt lat="44.59288" lon="0.98408">
        <ele>232.78</ele>
        <time>2016-05-05T10:04:53Z</time>
      </trkpt>
      <trkpt lat="44.59262" lon="0.98347">
        <ele>231.81</ele>
        <time>2016-05-05T10:05:09Z</time>
      </trkpt>
      <trkpt lat="44.59227" lon="0.98303">
        <ele>231.33</ele>
        <time>2016-05-05T10:05:21Z</time>
      </trkpt>
      <trkpt lat="44.59184" lon="0.98245">
        <ele>226.05</ele>
        <time>2016-05-05T10:05:30Z</time>
      </trkpt>
      <trkpt lat="44.59169" lon="0.98226">
        <ele>224.12</ele>
        <time>2016-05-05T10:05:34Z</time>
      </trkpt>
      <trkpt lat="44.5914" lon="0.98196">
        <ele>221.24</ele>
        <time>2016-05-05T10:05:43Z</time>
      </trkpt>
      <trkpt lat="44.59069" lon="0.98151">
        <ele>215.47</ele>
        <time>2016-05-05T10:05:56Z</time>
      </trkpt>
      <trkpt lat="44.58999" lon="0.98117">
        <ele>206.82</ele>
        <time>2016-05-05T10:06:08Z</time>
      </trkpt>
      <trkpt lat="44.58896" lon="0.98062">
        <ele>196.25</ele>
        <time>2016-05-05T10:06:23Z</time>
      </trkpt>
      <trkpt lat="44.58881" lon="0.98053">
        <ele>194.8</ele>
        <time>2016-05-05T10:06:25Z</time>
      </trkpt>
      <trkpt lat="44.58782" lon="0.98018">
        <ele>181.35</ele>
        <time>2016-05-05T10:06:35Z</time>
      </trkpt>
      <trkpt lat="44.58717" lon="0.97991">
        <ele>176.54</ele>
        <time>2016-05-05T10:06:41Z</time>
      </trkpt>
      <trkpt lat="44.58664" lon="0.97983">
        <ele>177.5</ele>
        <time>2016-05-05T10:06:48Z</time>
      </trkpt>
      <trkpt lat="44.58632" lon="0.9799">
        <ele>180.87</ele>
        <time>2016-05-05T10:06:55Z</time>
      </trkpt>
      <trkpt lat="44.58609" lon="0.97983">
        <ele>180.38</ele>
        <time>2016-05-05T10:07:00Z</time>
      </trkpt>
      <trkpt lat="44.5852" lon="0.97933">
        <ele>178.46</ele>
        <time>2016-05-05T10:07:14Z</time>
      </trkpt>
      <trkpt lat="44.58516" lon="0.97929">
        <ele>178.94</ele>
        <time>2016-05-05T10:07:15Z</time>
      </trkpt>
      <trkpt lat="44.58508" lon="0.9789">
        <ele>180.87</ele>
        <time>2016-05-05T10:07:23Z</time>
      </trkpt>
      <trkpt lat="44.58494" lon="0.9782">
        <ele>184.71</ele>
        <time>2016-05-05T10:07:38Z</time>
      </trkpt>
      <trkpt lat="44.58495" lon="0.97777">
        <ele>183.75</ele>
        <time>2016-05-05T10:07:48Z</time>
      </trkpt>
      <trkpt lat="44.58496" lon="0.97764">
        <ele>184.23</ele>
        <time>2016-05-05T10:07:50Z</time>
      </trkpt>
      <trkpt lat="44.58507" lon="0.97646">
        <ele>178.46</ele>
        <time>2016-05-05T10:08:03Z</time>
      </trkpt>
      <trkpt lat="44.58513" lon="0.97578">
        <ele>171.25</ele>
        <time>2016-05-05T10:08:10Z</time>
      </trkpt>
      <trkpt lat="44.58522" lon="0.9754">
        <ele>164.04</ele>
        <time>2016-05-05T10:08:17Z</time>
      </trkpt>
      <trkpt lat="44.5853" lon="0.97526">
        <ele>162.6</ele>
        <time>2016-05-05T10:08:19Z</time>
      </trkpt>
      <trkpt lat="44.58553" lon="0.97483">
        <ele>158.27</ele>
        <time>2016-05-05T10:08:24Z</time>
      </trkpt>
      <trkpt lat="44.58574" lon="0.97443">
        <ele>154.43</ele>
        <time>2016-05-05T10:08:30Z</time>
      </trkpt>
      <trkpt lat="44.58617" lon="0.97355">
        <ele>145.3</ele>
        <time>2016-05-05T10:08:40Z</time>
      </trkpt>
      <trkpt lat="44.58634" lon="0.97336">
        <ele>141.45</ele>
        <time>2016-05-05T10:08:44Z</time>
      </trkpt>
      <trkpt lat="44.58659" lon="0.97291">
        <ele>135.68</ele>
        <time>2016-05-05T10:08:52Z</time>
      </trkpt>
      <trkpt lat="44.5867" lon="0.97268">
        <ele>133.76</ele>
        <time>2016-05-05T10:08:55Z</time>
      </trkpt>
      <trkpt lat="44.58688" lon="0.9723">
        <ele>130.4</ele>
        <time>2016-05-05T10:09:00Z</time>
      </trkpt>
      <trkpt lat="44.58695" lon="0.97221">
        <ele>128.95</ele>
        <time>2016-05-05T10:09:02Z</time>
      </trkpt>
      <trkpt lat="44.58719" lon="0.9722">
        <ele>123.19</ele>
        <time>2016-05-05T10:09:08Z</time>
      </trkpt>
      <trkpt lat="44.58736" lon="0.97195">
        <ele>118.86</ele>
        <time>2016-05-05T10:09:15Z</time>
      </trkpt>
      <trkpt lat="44.58738" lon="0.97153">
        <ele>115.5</ele>
        <time>2016-05-05T10:09:23Z</time>
      </trkpt>
      <trkpt lat="44.58744" lon="0.97146">
        <ele>115.01</ele>
        <time>2016-05-05T10:09:27Z</time>
      </trkpt>
      <trkpt lat="44.58779" lon="0.9714">
        <ele>115.98</ele>
        <time>2016-05-05T10:09:40Z</time>
      </trkpt>
      <trkpt lat="44.58824" lon="0.97131">
        <ele>116.94</ele>
        <time>2016-05-05T10:09:55Z</time>
      </trkpt>
      <trkpt lat="44.58864" lon="0.97111">
        <ele>118.38</ele>
        <time>2016-05-05T10:10:09Z</time>
      </trkpt>
      <trkpt lat="44.58911" lon="0.97082">
        <ele>121.26</ele>
        <time>2016-05-05T10:10:24Z</time>
      </trkpt>
      <trkpt lat="44.58965" lon="0.97046">
        <ele>120.78</ele>
        <time>2016-05-05T10:10:41Z</time>
      </trkpt>
      <trkpt lat="44.59013" lon="0.97008">
        <ele>119.34</ele>
        <time>2016-05-05T10:10:56Z</time>
      </trkpt>
      <trkpt lat="44.59061" lon="0.96971">
        <ele>121.26</ele>
        <time>2016-05-05T10:11:11Z</time>
      </trkpt>
      <trkpt lat="44.59106" lon="0.96939">
        <ele>123.19</ele>
        <time>2016-05-05T10:11:25Z</time>
      </trkpt>
      <trkpt lat="44.59127" lon="0.96925">
        <ele>123.19</ele>
        <time>2016-05-05T10:11:31Z</time>
      </trkpt>
      <trkpt lat="44.59187" lon="0.96886">
        <ele>121.74</ele>
        <time>2016-05-05T10:11:46Z</time>
      </trkpt>
      <trkpt lat="44.59214" lon="0.96868">
        <ele>121.26</ele>
        <time>2016-05-05T10:11:52Z</time>
      </trkpt>
      <trkpt lat="44.59218" lon="0.96825">
        <ele>119.34</ele>
        <time>2016-05-05T10:11:58Z</time>
      </trkpt>
      <trkpt lat="44.59225" lon="0.96673">
        <ele>115.01</ele>
        <time>2016-05-05T10:12:13Z</time>
      </trkpt>
      <trkpt lat="44.59231" lon="0.96586">
        <ele>117.42</ele>
        <time>2016-05-05T10:12:26Z</time>
      </trkpt>
      <trkpt lat="44.59247" lon="0.96518">
        <ele>118.38</ele>
        <time>2016-05-05T10:12:40Z</time>
      </trkpt>
      <trkpt lat="44.59269" lon="0.96466">
        <ele>118.86</ele>
        <time>2016-05-05T10:12:55Z</time>
      </trkpt>
      <trkpt lat="44.5927" lon="0.96462">
        <ele>118.86</ele>
        <time>2016-05-05T10:12:57Z</time>
      </trkpt>
      <trkpt lat="44.59271" lon="0.96451">
        <ele>119.82</ele>
        <time>2016-05-05T10:13:08Z</time>
      </trkpt>
      <trkpt lat="44.59271" lon="0.96449">
        <ele>120.78</ele>
        <time>2016-05-05T10:13:27Z</time>
      </trkpt>
      <trkpt lat="44.59269" lon="0.96449">
        <ele>122.71</ele>
        <time>2016-05-05T10:13:51Z</time>
      </trkpt>
      <trkpt lat="44.59265" lon="0.96447">
        <ele>122.71</ele>
        <time>2016-05-05T10:14:18Z</time>
      </trkpt>
      <trkpt lat="44.59266" lon="0.96448">
        <ele>123.67</ele>
        <time>2016-05-05T10:14:42Z</time>
      </trkpt>
      <trkpt lat="44.59263" lon="0.96446">
        <ele>125.11</ele>
        <time>2016-05-05T10:15:07Z</time>
      </trkpt>
      <trkpt lat="44.59265" lon="0.96446">
        <ele>126.55</ele>
        <time>2016-05-05T10:15:31Z</time>
      </trkpt>
      <trkpt lat="44.59265" lon="0.96446">
        <ele>127.03</ele>
        <time>2016-05-05T10:15:48Z</time>
      </trkpt>
      <trkpt lat="44.59265" lon="0.96446">
        <ele>127.03</ele>
        <time>2016-05-05T10:15:49Z</time>
      </trkpt>
      <trkpt lat="44.5926" lon="0.96442">
        <ele>126.07</ele>
        <time>2016-05-05T10:16:01Z</time>
      </trkpt>
      <trkpt lat="44.59257" lon="0.9644">
        <ele>125.59</ele>
        <time>2016-05-05T10:16:11Z</time>
      </trkpt>
      <trkpt lat="44.59257" lon="0.96442">
        <ele>126.55</ele>
        <time>2016-05-05T10:16:39Z</time>
      </trkpt>
      <trkpt lat="44.59257" lon="0.96439">
        <ele>126.55</ele>
        <time>2016-05-05T10:17:10Z</time>
      </trkpt>
      <trkpt lat="44.59256" lon="0.96438">
        <ele>127.03</ele>
        <time>2016-05-05T10:17:41Z</time>
      </trkpt>
      <trkpt lat="44.59227" lon="0.96432">
        <ele>128.47</ele>
        <time>2016-05-05T10:17:51Z</time>
      </trkpt>
      <trkpt lat="44.592" lon="0.96449">
        <ele>129.92</ele>
        <time>2016-05-05T10:18:02Z</time>
      </trkpt>
      <trkpt lat="44.59184" lon="0.96483">
        <ele>131.84</ele>
        <time>2016-05-05T10:18:14Z</time>
      </trkpt>
      <trkpt lat="44.59163" lon="0.96523">
        <ele>132.8</ele>
        <time>2016-05-05T10:18:28Z</time>
      </trkpt>
      <trkpt lat="44.59134" lon="0.96552">
        <ele>137.13</ele>
        <time>2016-05-05T10:18:44Z</time>
      </trkpt>
      <trkpt lat="44.59103" lon="0.9657">
        <ele>139.53</ele>
        <time>2016-05-05T10:19:01Z</time>
      </trkpt>
      <trkpt lat="44.59077" lon="0.96581">
        <ele>142.89</ele>
        <time>2016-05-05T10:19:16Z</time>
      </trkpt>
      <trkpt lat="44.59045" lon="0.96587">
        <ele>144.82</ele>
        <time>2016-05-05T10:19:33Z</time>
      </trkpt>
      <trkpt lat="44.59018" lon="0.96585">
        <ele>148.18</ele>
        <time>2016-05-05T10:19:48Z</time>
      </trkpt>
      <trkpt lat="44.58995" lon="0.96578">
        <ele>151.06</ele>
        <time>2016-05-05T10:20:01Z</time>
      </trkpt>
      <trkpt lat="44.58969" lon="0.96565">
        <ele>153.95</ele>
        <time>2016-05-05T10:20:17Z</time>
      </trkpt>
      <trkpt lat="44.58938" lon="0.96548">
        <ele>155.87</ele>
        <time>2016-05-05T10:20:34Z</time>
      </trkpt>
      <trkpt lat="44.58922" lon="0.96524">
        <ele>157.31</ele>
        <time>2016-05-05T10:20:47Z</time>
      </trkpt>
      <trkpt lat="44.58911" lon="0.96484">
        <ele>161.16</ele>
        <time>2016-05-05T10:21:03Z</time>
      </trkpt>
      <trkpt lat="44.58906" lon="0.96452">
        <ele>162.6</ele>
        <time>2016-05-05T10:21:16Z</time>
      </trkpt>
      <trkpt lat="44.58899" lon="0.96416">
        <ele>164.04</ele>
        <time>2016-05-05T10:21:30Z</time>
      </trkpt>
      <trkpt lat="44.58889" lon="0.96384">
        <ele>169.33</ele>
        <time>2016-05-05T10:21:44Z</time>
      </trkpt>
      <trkpt lat="44.58883" lon="0.96375">
        <ele>170.77</ele>
        <time>2016-05-05T10:21:49Z</time>
      </trkpt>
      <trkpt lat="44.58882" lon="0.96369">
        <ele>171.73</ele>
        <time>2016-05-05T10:21:52Z</time>
      </trkpt>
      <trkpt lat="44.58878" lon="0.96362">
        <ele>173.17</ele>
        <time>2016-05-05T10:21:56Z</time>
      </trkpt>
      <trkpt lat="44.58875" lon="0.96354">
        <ele>174.14</ele>
        <time>2016-05-05T10:22:00Z</time>
      </trkpt>
      <trkpt lat="44.58873" lon="0.96349">
        <ele>174.62</ele>
        <time>2016-05-05T10:22:02Z</time>
      </trkpt>
      <trkpt lat="44.5887" lon="0.9634">
        <ele>175.58</ele>
        <time>2016-05-05T10:22:07Z</time>
      </trkpt>
      <trkpt lat="44.58858" lon="0.9632">
        <ele>178.46</ele>
        <time>2016-05-05T10:22:17Z</time>
      </trkpt>
      <trkpt lat="44.58832" lon="0.96303">
        <ele>183.27</ele>
        <time>2016-05-05T10:22:31Z</time>
      </trkpt>
      <trkpt lat="44.58809" lon="0.96297">
        <ele>187.59</ele>
        <time>2016-05-05T10:22:45Z</time>
      </trkpt>
      <trkpt lat="44.58786" lon="0.96299">
        <ele>189.04</ele>
        <time>2016-05-05T10:22:57Z</time>
      </trkpt>
      <trkpt lat="44.5877" lon="0.963">
        <ele>191.92</ele>
        <time>2016-05-05T10:23:08Z</time>
      </trkpt>
      <trkpt lat="44.5874" lon="0.96294">
        <ele>194.8</ele>
        <time>2016-05-05T10:23:23Z</time>
      </trkpt>
      <trkpt lat="44.5871" lon="0.96282">
        <ele>187.11</ele>
        <time>2016-05-05T10:23:38Z</time>
      </trkpt>
      <trkpt lat="44.58707" lon="0.9628">
        <ele>186.63</ele>
        <time>2016-05-05T10:23:40Z</time>
      </trkpt>
      <trkpt lat="44.58694" lon="0.9628">
        <ele>185.67</ele>
        <time>2016-05-05T10:23:47Z</time>
      </trkpt>
      <trkpt lat="44.58659" lon="0.96266">
        <ele>180.87</ele>
        <time>2016-05-05T10:24:02Z</time>
      </trkpt>
      <trkpt lat="44.58638" lon="0.96252">
        <ele>179.42</ele>
        <time>2016-05-05T10:24:11Z</time>
      </trkpt>
      <trkpt lat="44.58622" lon="0.96243">
        <ele>178.46</ele>
        <time>2016-05-05T10:24:15Z</time>
      </trkpt>
      <trkpt lat="44.586" lon="0.96247">
        <ele>177.98</ele>
        <time>2016-05-05T10:24:20Z</time>
      </trkpt>
      <trkpt lat="44.58578" lon="0.96267">
        <ele>180.38</ele>
        <time>2016-05-05T10:24:32Z</time>
      </trkpt>
      <trkpt lat="44.5855" lon="0.96289">
        <ele>183.75</ele>
        <time>2016-05-05T10:24:50Z</time>
      </trkpt>
      <trkpt lat="44.58525" lon="0.96287">
        <ele>188.08</ele>
        <time>2016-05-05T10:25:06Z</time>
      </trkpt>
      <trkpt lat="44.58496" lon="0.9629">
        <ele>191.44</ele>
        <time>2016-05-05T10:25:23Z</time>
      </trkpt>
      <trkpt lat="44.58466" lon="0.96297">
        <ele>192.88</ele>
        <time>2016-05-05T10:25:41Z</time>
      </trkpt>
      <trkpt lat="44.58461" lon="0.96303">
        <ele>192.88</ele>
        <time>2016-05-05T10:25:46Z</time>
      </trkpt>
      <trkpt lat="44.58464" lon="0.96331">
        <ele>194.8</ele>
        <time>2016-05-05T10:25:59Z</time>
      </trkpt>
      <trkpt lat="44.58477" lon="0.96372">
        <ele>199.13</ele>
        <time>2016-05-05T10:26:18Z</time>
      </trkpt>
      <trkpt lat="44.58487" lon="0.96411">
        <ele>203.46</ele>
        <time>2016-05-05T10:26:34Z</time>
      </trkpt>
      <trkpt lat="44.58492" lon="0.96436">
        <ele>204.42</ele>
        <time>2016-05-05T10:26:45Z</time>
      </trkpt>
    </trkseg>
  </trk>
</gpx>